Observation data for Caprock Canyons on 03/11/2018      Previous  Date  Next       Current Mesonet Observations  Soil Data  Daily Summary Page  Observations in Plain Language
KQU1 110600Z 00018G27KT 14/M05 A30 RMK A01 T01411046  RH  027%=      5-min Rain = 0
KQU1 110601Z 01014G21KT 14/M05 A30 RMK A01 T01411047  RH  027%=      5-min Rain = 0
KQU1 110602Z 01011G19KT 14/M05 A30 RMK A01 T01411045  RH  027%=      5-min Rain = 0
KQU1 110603Z 01014G22KT 14/M05 A30 RMK A01 T01401046  RH  027%=      5-min Rain = 0
KQU1 110604Z 36018G27KT 14/M05 A30 RMK A01 T01401046  RH  027%=      5-min Rain = 0
KQU1 110605Z 00012G21KT 14/M05 A30 RMK A01 T01401045  RH  027%=      5-min Rain = 0
KQU1 110606Z 01012G17KT 14/M05 A30 RMK A01 T01401045  RH  027%=      5-min Rain = 0
KQU1 110607Z 01014G23KT 14/M05 A30 RMK A01 T01401047  RH  027%=      5-min Rain = 0
KQU1 110608Z 00013G22KT 14/M05 A30 RMK A01 T01391047  RH  027%=      5-min Rain = 0
KQU1 110609Z 01011G19KT 14/M05 A30 RMK A01 T01391046  RH  027%=      5-min Rain = 0
KQU1 110610Z 00011G21KT 14/M05 A30 RMK A01 T01391045  RH  028%=      5-min Rain = 0
KQU1 110611Z 01019G29KT 14/M05 A30 RMK A01 T01391048  RH  027%=      5-min Rain = 0
KQU1 110612Z 01012KT 14/M05 A30 RMK A01 T01391046  RH  028%=      5-min Rain = 0
KQU1 110613Z 01011G18KT 14/M05 A30 RMK A01 T01381046  RH  028%=      5-min Rain = 0
KQU1 110614Z 01012G21KT 14/M05 A30 RMK A01 T01381046  RH  028%=      5-min Rain = 0
KQU1 110615Z 01014G21KT 14/M05 A30 RMK A01 T01381046  RH  028%=      5-min Rain = 0
KQU1 110616Z 01015G23KT 14/M05 A30 RMK A01 T01371047  RH  028%=      5-min Rain = 0
KQU1 110617Z 36015G27KT 14/M05 A30 RMK A01 T01381047  RH  027%=      5-min Rain = 0
KQU1 110618Z 01014G23KT 14/M05 A3001 RMK A01 T01381045  RH  028%=      5-min Rain = 0
KQU1 110619Z 00012G18KT 14/M05 A3001 RMK A01 T01371046  RH  028%=      5-min Rain = 0
KQU1 110620Z 01014G21KT 14/M05 A3001 RMK A01 T01371045  RH  028%=      5-min Rain = 0
KQU1 110621Z 00015G22KT 14/M05 A3001 RMK A01 T01371047  RH  028%=      5-min Rain = 0
KQU1 110622Z 01016G22KT 14/M05 A3001 RMK A01 T01371048  RH  027%=      5-min Rain = 0
KQU1 110623Z 01014G22KT 14/M05 A3001 RMK A01 T01371046  RH  028%=      5-min Rain = 0
KQU1 110624Z 01009G18KT 14/M05 A3001 RMK A01 T01371045  RH  028%=      5-min Rain = 0
KQU1 110625Z 01014G22KT 14/M05 A3001 RMK A01 T01361046  RH  028%=      5-min Rain = 0
KQU1 110626Z 01015G24KT 14/M05 A3001 RMK A01 T01361048  RH  028%=      5-min Rain = 0
KQU1 110627Z 36014G20KT 14/M05 A3001 RMK A01 T01361046  RH  028%=      5-min Rain = 0
KQU1 110628Z 01014G19KT 14/M05 A3001 RMK A01 T01361048  RH  028%=      5-min Rain = 0
KQU1 110629Z 01016G25KT 14/M05 A3001 RMK A01 T01361047  RH  028%=      5-min Rain = 0
KQU1 110630Z 01013G23KT 14/M05 A3001 RMK A01 T01361046  RH  028%=      5-min Rain = 0
KQU1 110631Z 01011G18KT 14/M05 A3001 RMK A01 T01351047  RH  028%=      5-min Rain = 0
KQU1 110632Z 00014G21KT 14/M05 A3001 RMK A01 T01351047  RH  028%=      5-min Rain = 0
KQU1 110633Z 01016G24KT 14/M05 A3001 RMK A01 T01351047  RH  028%=      5-min Rain = 0
KQU1 110634Z 01013G20KT 14/M05 A3001 RMK A01 T01351046  RH  028%=      5-min Rain = 0
KQU1 110635Z 01015G22KT 14/M05 A3001 RMK A01 T01351046  RH  028%=      5-min Rain = 0
KQU1 110636Z 01017G24KT 13/M05 A3001 RMK A01 T01341047  RH  028%=      5-min Rain = 0
KQU1 110637Z 01013G19KT 13/M05 A3001 RMK A01 T01341046  RH  028%=      5-min Rain = 0
KQU1 110638Z 02012G18KT 13/M05 A3001 RMK A01 T01341046  RH  028%=      5-min Rain = 0
KQU1 110639Z 01013G18KT 13/M04 A3001 RMK A01 T01341044  RH  029%=      5-min Rain = 0
KQU1 110640Z 01011G21KT 13/M05 A3002 RMK A01 T01341045  RH  029%=      5-min Rain = 0
KQU1 110641Z 01015G24KT 13/M05 A3002 RMK A01 T01341045  RH  029%=      5-min Rain = 0
KQU1 110642Z 01015G22KT 13/M05 A3002 RMK A01 T01341047  RH  028%=      5-min Rain = 0
KQU1 110643Z 00011G18KT 13/M04 A3002 RMK A01 T01341043  RH  029%=      5-min Rain = 0
KQU1 110644Z 00010G19KT 13/M05 A3002 RMK A01 T01331045  RH  029%=      5-min Rain = 0
KQU1 110645Z 01012G18KT 13/M04 A3002 RMK A01 T01331044  RH  029%=      5-min Rain = 0
KQU1 110646Z 01015G24KT 13/M05 A3002 RMK A01 T01331046  RH  028%=      5-min Rain = 0
KQU1 110647Z 01012G17KT 13/M04 A3002 RMK A01 T01331044  RH  029%=      5-min Rain = 0
KQU1 110648Z 02015G22KT 13/M05 A3002 RMK A01 T01331045  RH  029%=      5-min Rain = 0
KQU1 110649Z 01012G17KT 13/M04 A3002 RMK A01 T01321043  RH  029%=      5-min Rain = 0
KQU1 110650Z 36016G25KT 13/M04 A3002 RMK A01 T01321043  RH  029%=      5-min Rain = 0
KQU1 110651Z 01014G21KT 13/M04 A3002 RMK A01 T01321043  RH  029%=      5-min Rain = 0
KQU1 110652Z 00013G20KT 13/M04 A3002 RMK A01 T01321043  RH  029%=      5-min Rain = 0
KQU1 110653Z 01011G19KT 13/M04 A3003 RMK A01 T01321042  RH  030%=      5-min Rain = 0
KQU1 110654Z 01012G24KT 13/M04 A3003 RMK A01 T01311040  RH  030%=      5-min Rain = 0
KQU1 110655Z 00012G22KT 13/M04 A3003 RMK A01 T01311039  RH  030%=      5-min Rain = 0
KQU1 110656Z 02011G19KT 13/M04 A3003 RMK A01 T01311039  RH  030%=      5-min Rain = 0
KQU1 110657Z 01017G28KT 13/M04 A3003 RMK A01 T01311041  RH  030%=      5-min Rain = 0
KQU1 110658Z 01017G24KT 13/M04 A3003 RMK A01 T01311041  RH  030%=      5-min Rain = 0
KQU1 110659Z 00013G21KT 13/M04 A3003 RMK A01 T01311040  RH  030%=      5-min Rain = 0
KQU1 110700Z 01019G25KT 13/M04 A3003 RMK A01 T01311041  RH  030%=      5-min Rain = 0
KQU1 110701Z 01018G30KT 13/M04 A3003 RMK A01 T01311038  RH  031%=      5-min Rain = 0
KQU1 110702Z 00016G26KT 13/M04 A3003 RMK A01 T01311040  RH  030%=      5-min Rain = 0
KQU1 110703Z 01015G25KT 13/M04 A3003 RMK A01 T01311038  RH  031%=      5-min Rain = 0
KQU1 110704Z 01015G21KT 13/M04 A3003 RMK A01 T01311038  RH  031%=      5-min Rain = 0
KQU1 110705Z 00016G25KT 13/M04 A3003 RMK A01 T01301039  RH  030%=      5-min Rain = 0
KQU1 110706Z 02015G24KT 13/M04 A3003 RMK A01 T01301037  RH  031%=      5-min Rain = 0
KQU1 110707Z 01017G24KT 13/M04 A3003 RMK A01 T01301038  RH  031%=      5-min Rain = 0
KQU1 110708Z 01011G21KT 13/M04 A3003 RMK A01 T01301037  RH  031%=      5-min Rain = 0
KQU1 110709Z 01012G22KT 13/M04 A3003 RMK A01 T01291037  RH  031%=      5-min Rain = 0
KQU1 110710Z 02015KT 13/M04 A3003 RMK A01 T01291037  RH  031%=      5-min Rain = 0
KQU1 110711Z 01013G18KT 13/M04 A3003 RMK A01 T01291037  RH  031%=      5-min Rain = 0
KQU1 110712Z 35014G22KT 13/M04 A3004 RMK A01 T01291036  RH  032%=      5-min Rain = 0
KQU1 110713Z 01017G29KT 13/M04 A3004 RMK A01 T01281036  RH  032%=      5-min Rain = 0
KQU1 110714Z 01014G25KT 13/M04 A3004 RMK A01 T01281035  RH  032%=      5-min Rain = 0
KQU1 110715Z 01018G27KT 13/M04 A3004 RMK A01 T01281035  RH  032%=      5-min Rain = 0
KQU1 110716Z 36018G25KT 13/M03 A3004 RMK A01 T01281034  RH  032%=      5-min Rain = 0
KQU1 110717Z 01016G26KT 13/M04 A3004 RMK A01 T01281036  RH  032%=      5-min Rain = 0
KQU1 110718Z 01013G19KT 13/M03 A3004 RMK A01 T01281034  RH  032%=      5-min Rain = 0
KQU1 110719Z 00017G25KT 13/M03 A3004 RMK A01 T01281034  RH  032%=      5-min Rain = 0
KQU1 110720Z 36016G27KT 13/M03 A3004 RMK A01 T01271033  RH  032%=      5-min Rain = 0
KQU1 110721Z 02015G23KT 13/M03 A3004 RMK A01 T01271032  RH  033%=      5-min Rain = 0
KQU1 110722Z 01018G27KT 13/M03 A3004 RMK A01 T01271032  RH  033%=      5-min Rain = 0
KQU1 110723Z 01015G27KT 13/M03 A3004 RMK A01 T01271031  RH  033%=      5-min Rain = 0
KQU1 110724Z 01015G22KT 13/M03 A3004 RMK A01 T01271030  RH  033%=      5-min Rain = 0
KQU1 110725Z 01015G22KT 13/M03 A3005 RMK A01 T01261031  RH  033%=      5-min Rain = 0
KQU1 110726Z 02015G25KT 13/M03 A3005 RMK A01 T01261029  RH  034%=      5-min Rain = 0
KQU1 110727Z 02015KT 13/M03 A3005 RMK A01 T01261030  RH  034%=      5-min Rain = 0
KQU1 110728Z 02013G27KT 13/M03 A3005 RMK A01 T01261030  RH  034%=      5-min Rain = 0
KQU1 110729Z 01011G16KT 13/M03 A3005 RMK A01 T01261029  RH  034%=      5-min Rain = 0
KQU1 110730Z 01010G17KT 13/M03 A3005 RMK A01 T01251029  RH  034%=      5-min Rain = 0
KQU1 110731Z 00014G21KT 13/M03 A3005 RMK A01 T01251030  RH  034%=      5-min Rain = 0
KQU1 110732Z 01016G22KT 13/M03 A3005 RMK A01 T01251029  RH  034%=      5-min Rain = 0
KQU1 110733Z 01010KT 13/M03 A3006 RMK A01 T01251025  RH  035%=      5-min Rain = 0
KQU1 110734Z 02013G18KT 13/M03 A3006 RMK A01 T01251026  RH  035%=      5-min Rain = 0
KQU1 110735Z 01014G21KT 13/M03 A3006 RMK A01 T01251028  RH  034%=      5-min Rain = 0
KQU1 110736Z 01016G25KT 12/M03 A3006 RMK A01 T01241028  RH  035%=      5-min Rain = 0
KQU1 110737Z 01014G26KT 12/M03 A3006 RMK A01 T01241028  RH  034%=      5-min Rain = 0
KQU1 110738Z 01008G14KT 12/M03 A3006 RMK A01 T01241026  RH  035%=      5-min Rain = 0
KQU1 110739Z 36011G19KT 12/M03 A3006 RMK A01 T01241026  RH  035%=      5-min Rain = 0
KQU1 110740Z 01017G30KT 12/M03 A3006 RMK A01 T01231027  RH  035%=      5-min Rain = 0
KQU1 110741Z 02015G24KT 12/M03 A3006 RMK A01 T01231027  RH  035%=      5-min Rain = 0
KQU1 110742Z 01016G26KT 12/M03 A3005 RMK A01 T01231027  RH  035%=      5-min Rain = 0
KQU1 110743Z 02016G27KT 12/M03 A3005 RMK A01 T01231026  RH  035%=      5-min Rain = 0
KQU1 110744Z 02013G21KT 12/M03 A3006 RMK A01 T01231025  RH  036%=      5-min Rain = 0
KQU1 110745Z 01008G13KT 12/M02 A3006 RMK A01 T01231024  RH  036%=      5-min Rain = 0
KQU1 110746Z 00015G24KT 12/M03 A3006 RMK A01 T01221025  RH  036%=      5-min Rain = 0
KQU1 110747Z 36014G21KT 12/M03 A3006 RMK A01 T01221025  RH  036%=      5-min Rain = 0
KQU1 110748Z 36014G19KT 12/M03 A3006 RMK A01 T01221025  RH  036%=      5-min Rain = 0
KQU1 110749Z 01010G16KT 12/M02 A3006 RMK A01 T01221024  RH  036%=      5-min Rain = 0
KQU1 110750Z 01010G15KT 12/M02 A3006 RMK A01 T01211023  RH  037%=      5-min Rain = 0
KQU1 110751Z 01012G22KT 12/M02 A3006 RMK A01 T01211024  RH  036%=      5-min Rain = 0
KQU1 110752Z 01011KT 12/M02 A3006 RMK A01 T01211022  RH  037%=      5-min Rain = 0
KQU1 110753Z 02012KT 12/M02 A3006 RMK A01 T01211024  RH  036%=      5-min Rain = 0
KQU1 110754Z 00011G20KT 12/M02 A3006 RMK A01 T01211023  RH  037%=      5-min Rain = 0
KQU1 110755Z 36010G17KT 12/M02 A3006 RMK A01 T01201023  RH  037%=      5-min Rain = 0
KQU1 110756Z 01011G19KT 12/M02 A3006 RMK A01 T01201022  RH  037%=      5-min Rain = 0
KQU1 110757Z 01012G19KT 12/M02 A3007 RMK A01 T01201023  RH  037%=      5-min Rain = 0
KQU1 110758Z 01012G17KT 12/M02 A3007 RMK A01 T01201023  RH  037%=      5-min Rain = 0
KQU1 110759Z 01013G20KT 12/M03 A3007 RMK A01 T01201025  RH  036%=      5-min Rain = 0
KQU1 110800Z 01014G21KT 12/M02 A3007 RMK A01 T01201024  RH  037%=      5-min Rain = 0
KQU1 110801Z 02013G25KT 12/M02 A3007 RMK A01 T01201023  RH  037%=      5-min Rain = 0
KQU1 110802Z 02019G25KT 12/M02 A3007 RMK A01 T01201024  RH  037%=      5-min Rain = 0
KQU1 110803Z 02013G21KT 12/M02 A3007 RMK A01 T01201024  RH  037%=      5-min Rain = 0
KQU1 110804Z 00007G13KT 12/M02 A3007 RMK A01 T01201023  RH  037%=      5-min Rain = 0
KQU1 110805Z 01010G17KT 12/M02 A3007 RMK A01 T01191021  RH  038%=      5-min Rain = 0
KQU1 110806Z 02012G18KT 12/M02 A3007 RMK A01 T01191023  RH  037%=      5-min Rain = 0
KQU1 110807Z 01011KT 12/M02 A3007 RMK A01 T01191022  RH  037%=      5-min Rain = 0
KQU1 110808Z 02013G24KT 12/M02 A3007 RMK A01 T01191022  RH  037%=      5-min Rain = 0
KQU1 110809Z 01015G22KT 12/M03 A3007 RMK A01 T01191025  RH  036%=      5-min Rain = 0
KQU1 110810Z 02013G23KT 12/M02 A3007 RMK A01 T01191024  RH  037%=      5-min Rain = 0
KQU1 110811Z 01011G16KT 12/M02 A3007 RMK A01 T01191023  RH  037%=      5-min Rain = 0
KQU1 110812Z 01012G19KT 12/M02 A3007 RMK A01 T01191023  RH  037%=      5-min Rain = 0
KQU1 110813Z 00009G19KT 12/M02 A3007 RMK A01 T01191024  RH  037%=      5-min Rain = 0
KQU1 110814Z 01011G17KT 12/M03 A3007 RMK A01 T01181025  RH  037%=      5-min Rain = 0
KQU1 110815Z 01010G15KT 12/M02 A3007 RMK A01 T01181024  RH  037%=      5-min Rain = 0
KQU1 110816Z 01011G18KT 12/M03 A3007 RMK A01 T01181025  RH  037%=      5-min Rain = 0
KQU1 110817Z 01011G19KT 12/M03 A3007 RMK A01 T01181025  RH  037%=      5-min Rain = 0
KQU1 110818Z 01010G15KT 12/M03 A3007 RMK A01 T01181026  RH  036%=      5-min Rain = 0
KQU1 110819Z 02013G19KT 12/M03 A3007 RMK A01 T01181026  RH  037%=      5-min Rain = 0
KQU1 110820Z 00010G17KT 12/M03 A3007 RMK A01 T01181026  RH  037%=      5-min Rain = 0
KQU1 110821Z 01009G16KT 12/M02 A3007 RMK A01 T01181023  RH  037%=      5-min Rain = 0
KQU1 110822Z 36012G17KT 12/M03 A3007 RMK A01 T01181025  RH  037%=      5-min Rain = 0
KQU1 110823Z 00009KT 12/M03 A3007 RMK A01 T01181025  RH  037%=      5-min Rain = 0
KQU1 110824Z 01009KT 12/M02 A3007 RMK A01 T01181024  RH  037%=      5-min Rain = 0
KQU1 110825Z 01009G15KT 12/M02 A3007 RMK A01 T01171024  RH  037%=      5-min Rain = 0
KQU1 110826Z 01011KT 12/M03 A3007 RMK A01 T01171025  RH  037%=      5-min Rain = 0
KQU1 110827Z 00012G20KT 12/M03 A3007 RMK A01 T01171026  RH  037%=      5-min Rain = 0
KQU1 110828Z 02012G19KT 12/M02 A3007 RMK A01 T01171024  RH  037%=      5-min Rain = 0
KQU1 110829Z 02015G23KT 12/M03 A3007 RMK A01 T01171027  RH  036%=      5-min Rain = 0
KQU1 110830Z 02012KT 12/M03 A3007 RMK A01 T01171025  RH  037%=      5-min Rain = 0
KQU1 110831Z 01017G27KT 12/M03 A3007 RMK A01 T01171027  RH  036%=      5-min Rain = 0
KQU1 110832Z 01015G22KT 12/M03 A3007 RMK A01 T01171028  RH  036%=      5-min Rain = 0
KQU1 110833Z 02015G22KT 12/M03 A3007 RMK A01 T01171029  RH  036%=      5-min Rain = 0
KQU1 110834Z 01015G21KT 12/M03 A3007 RMK A01 T01171029  RH  036%=      5-min Rain = 0
KQU1 110835Z 01015G22KT 12/M03 A3007 RMK A01 T01171029  RH  036%=      5-min Rain = 0
KQU1 110836Z 01012G19KT 12/M03 A3007 RMK A01 T01171028  RH  036%=      5-min Rain = 0
KQU1 110837Z 01011KT 12/M03 A3007 RMK A01 T01171027  RH  037%=      5-min Rain = 0
KQU1 110838Z 02009G16KT 12/M03 A3007 RMK A01 T01171026  RH  037%=      5-min Rain = 0
KQU1 110839Z 02009G15KT 12/M03 A3007 RMK A01 T01171025  RH  037%=      5-min Rain = 0
KQU1 110840Z 02011G18KT 12/M03 A3008 RMK A01 T01171025  RH  037%=      5-min Rain = 0
KQU1 110841Z 01009G16KT 12/M03 A3007 RMK A01 T01161027  RH  037%=      5-min Rain = 0
KQU1 110842Z 02010G17KT 12/M03 A3007 RMK A01 T01161028  RH  036%=      5-min Rain = 0
KQU1 110843Z 01012G19KT 12/M03 A3008 RMK A01 T01161029  RH  036%=      5-min Rain = 0
KQU1 110844Z 01011G16KT 12/M03 A3007 RMK A01 T01161029  RH  036%=      5-min Rain = 0
KQU1 110845Z 01010G16KT 12/M03 A3007 RMK A01 T01161029  RH  036%=      5-min Rain = 0
KQU1 110846Z 00007G12KT 12/M03 A3007 RMK A01 T01161028  RH  036%=      5-min Rain = 0
KQU1 110847Z 02012KT 12/M03 A3007 RMK A01 T01151029  RH  036%=      5-min Rain = 0
KQU1 110848Z 01012G18KT 12/M03 A3007 RMK A01 T01151030  RH  036%=      5-min Rain = 0
KQU1 110849Z 01009KT 12/M03 A3007 RMK A01 T01151029  RH  036%=      5-min Rain = 0
KQU1 110850Z 02011G17KT 12/M03 A3008 RMK A01 T01151030  RH  036%=      5-min Rain = 0
KQU1 110851Z 01011G18KT 12/M03 A3008 RMK A01 T01151032  RH  036%=      5-min Rain = 0
KQU1 110852Z 00008KT 12/M03 A3008 RMK A01 T01151031  RH  036%=      5-min Rain = 0
KQU1 110853Z 36009KT 12/M03 A3008 RMK A01 T01151032  RH  036%=      5-min Rain = 0
KQU1 110854Z 01009G15KT 12/M03 A3008 RMK A01 T01151030  RH  036%=      5-min Rain = 0
KQU1 110855Z 01008G14KT 12/M03 A3008 RMK A01 T01151032  RH  036%=      5-min Rain = 0
KQU1 110856Z 00008G14KT 12/M03 A3008 RMK A01 T01151032  RH  036%=      5-min Rain = 0
KQU1 110857Z 01008KT 12/M03 A3008 RMK A01 T01151032  RH  036%=      5-min Rain = 0
KQU1 110858Z 01011G16KT 11/M03 A3008 RMK A01 T01141034  RH  035%=      5-min Rain = 0
KQU1 110859Z 02013G18KT 12/M04 A3008 RMK A01 T01151035  RH  035%=      5-min Rain = 0
KQU1 110900Z 01011KT 12/M04 A3008 RMK A01 T01151035  RH  035%=      5-min Rain = 0
KQU1 110901Z 01011KT 12/M04 A3008 RMK A01 T01151036  RH  035%=      5-min Rain = 0
KQU1 110902Z 00008KT 12/M04 A3008 RMK A01 T01151035  RH  035%=      5-min Rain = 0
KQU1 110903Z 36008G15KT 12/M03 A3008 RMK A01 T01151034  RH  035%=      5-min Rain = 0
KQU1 110904Z 01009G14KT 12/M03 A3008 RMK A01 T01151034  RH  035%=      5-min Rain = 0
KQU1 110905Z 00009KT 12/M04 A3009 RMK A01 T01151035  RH  035%=      5-min Rain = 0
KQU1 110906Z 01009G14KT 11/M03 A3009 RMK A01 T01141034  RH  035%=      5-min Rain = 0
KQU1 110907Z 01015G21KT 11/M04 A3008 RMK A01 T01141036  RH  035%=      5-min Rain = 0
KQU1 110908Z 00012G19KT 11/M04 A3009 RMK A01 T01141035  RH  035%=      5-min Rain = 0
KQU1 110909Z 01008G17KT 11/M04 A3009 RMK A01 T01141035  RH  035%=      5-min Rain = 0
KQU1 110910Z 01007KT 11/M03 A3009 RMK A01 T01141033  RH  036%=      5-min Rain = 0
KQU1 110911Z 01008KT 11/M03 A3009 RMK A01 T01141034  RH  035%=      5-min Rain = 0
KQU1 110912Z 01008G14KT 11/M04 A3009 RMK A01 T01131035  RH  035%=      5-min Rain = 0
KQU1 110913Z 01009G14KT 11/M04 A3009 RMK A01 T01131035  RH  035%=      5-min Rain = 0
KQU1 110914Z 00010G15KT 11/M04 A3008 RMK A01 T01131035  RH  035%=      5-min Rain = 0
KQU1 110915Z 02008KT 11/M04 A3009 RMK A01 T01131035  RH  035%=      5-min Rain = 0
KQU1 110916Z 00009G15KT 11/M03 A3009 RMK A01 T01131034  RH  036%=      5-min Rain = 0
KQU1 110917Z 01012G17KT 11/M03 A3008 RMK A01 T01131034  RH  035%=      5-min Rain = 0
KQU1 110918Z 01010G15KT 11/M03 A3009 RMK A01 T01131034  RH  036%=      5-min Rain = 0
KQU1 110919Z 00008G18KT 11/M03 A3009 RMK A01 T01131033  RH  036%=      5-min Rain = 0
KQU1 110920Z 01008G18KT 11/M04 A3009 RMK A01 T01131035  RH  035%=      5-min Rain = 0
KQU1 110921Z 01010G15KT 11/M04 A3009 RMK A01 T01131035  RH  035%=      5-min Rain = 0
KQU1 110922Z 01007KT 11/M03 A3009 RMK A01 T01121034  RH  036%=      5-min Rain = 0
KQU1 110923Z 00008G15KT 11/M04 A3009 RMK A01 T01121035  RH  036%=      5-min Rain = 0
KQU1 110924Z 01009G15KT 11/M03 A3009 RMK A01 T01121034  RH  036%=      5-min Rain = 0
KQU1 110925Z 02008G13KT 11/M03 A3009 RMK A01 T01121034  RH  036%=      5-min Rain = 0
KQU1 110926Z 00010KT 11/M04 A3009 RMK A01 T01121035  RH  036%=      5-min Rain = 0
KQU1 110927Z 36009G17KT 11/M04 A3009 RMK A01 T01121035  RH  036%=      5-min Rain = 0
KQU1 110928Z 01011G16KT 11/M04 A3009 RMK A01 T01121036  RH  035%=      5-min Rain = 0
KQU1 110929Z 01013KT 11/M04 A3009 RMK A01 T01111037  RH  035%=      5-min Rain = 0
KQU1 110930Z 00010G16KT 11/M04 A3009 RMK A01 T01111035  RH  036%=      5-min Rain = 0
KQU1 110931Z 00011G20KT 11/M04 A3009 RMK A01 T01111035  RH  036%=      5-min Rain = 0
KQU1 110932Z 01011G20KT 11/M04 A3009 RMK A01 T01111035  RH  036%=      5-min Rain = 0
KQU1 110933Z 01008G17KT 11/M03 A3009 RMK A01 T01111034  RH  036%=      5-min Rain = 0
KQU1 110934Z 01011G16KT 11/M03 A3009 RMK A01 T01111034  RH  036%=      5-min Rain = 0
KQU1 110935Z 00011G17KT 11/M03 A3009 RMK A01 T01111034  RH  036%=      5-min Rain = 0
KQU1 110936Z 01010KT 11/M03 A3009 RMK A01 T01111034  RH  036%=      5-min Rain = 0
KQU1 110937Z 01009G20KT 11/M04 A3009 RMK A01 T01111035  RH  036%=      5-min Rain = 0
KQU1 110938Z 01010G17KT 11/M03 A3009 RMK A01 T01111032  RH  037%=      5-min Rain = 0
KQU1 110939Z 00009KT 11/M03 A3009 RMK A01 T01111032  RH  037%=      5-min Rain = 0
KQU1 110940Z 01008KT 11/M03 A3009 RMK A01 T01111031  RH  037%=      5-min Rain = 0
KQU1 110941Z 02009KT 11/M03 A3009 RMK A01 T01101030  RH  037%=      5-min Rain = 0
KQU1 110942Z 02011G17KT 11/M03 A3009 RMK A01 T01101031  RH  037%=      5-min Rain = 0
KQU1 110943Z 01013G20KT 11/M03 A3009 RMK A01 T01101031  RH  037%=      5-min Rain = 0
KQU1 110944Z 01011G17KT 11/M03 A3009 RMK A01 T01101031  RH  037%=      5-min Rain = 0
KQU1 110945Z 01012G18KT 11/M03 A3009 RMK A01 T01101031  RH  037%=      5-min Rain = 0
KQU1 110946Z 01013G18KT 11/M03 A3009 RMK A01 T01101032  RH  037%=      5-min Rain = 0
KQU1 110947Z 01009G16KT 11/M03 A3009 RMK A01 T01101031  RH  037%=      5-min Rain = 0
KQU1 110948Z 02011G16KT 11/M03 A3009 RMK A01 T01101031  RH  037%=      5-min Rain = 0
KQU1 110949Z 02010G15KT 11/M03 A3009 RMK A01 T01091029  RH  038%=      5-min Rain = 0
KQU1 110950Z 01008G14KT 11/M03 A3009 RMK A01 T01091030  RH  037%=      5-min Rain = 0
KQU1 110951Z 02014G23KT 11/M03 A3009 RMK A01 T01091031  RH  037%=      5-min Rain = 0
KQU1 110952Z 02011G20KT 11/M03 A301 RMK A01 T01091029  RH  038%=      5-min Rain = 0
KQU1 110953Z 02007KT 11/M03 A301 RMK A01 T01091029  RH  038%=      5-min Rain = 0
KQU1 110954Z 36011G17KT 11/M03 A301 RMK A01 T01091031  RH  037%=      5-min Rain = 0
KQU1 110955Z 00008KT 11/M03 A301 RMK A01 T01091031  RH  037%=      5-min Rain = 0
KQU1 110956Z 01011G19KT 11/M03 A301 RMK A01 T01091032  RH  037%=      5-min Rain = 0
KQU1 110957Z 01012KT 11/M03 A301 RMK A01 T01081032  RH  037%=      5-min Rain = 0
KQU1 110958Z 00007G14KT 11/M03 A301 RMK A01 T01081032  RH  037%=      5-min Rain = 0
KQU1 110959Z 01008KT 11/M03 A301 RMK A01 T01081031  RH  037%=      5-min Rain = 0
KQU1 111000Z 01009G15KT 11/M03 A301 RMK A01 T01081032  RH  037%=      5-min Rain = 0
KQU1 111001Z 00009G14KT 11/M03 A301 RMK A01 T01081032  RH  037%=      5-min Rain = 0
KQU1 111002Z 35008G13KT 11/M03 A3011 RMK A01 T01081032  RH  038%=      5-min Rain = 0
KQU1 111003Z 02013G20KT 11/M03 A3011 RMK A01 T01071032  RH  038%=      5-min Rain = 0
KQU1 111004Z 01012KT 11/M03 A3011 RMK A01 T01071033  RH  037%=      5-min Rain = 0
KQU1 111005Z 01013G18KT 11/M03 A3011 RMK A01 T01071033  RH  037%=      5-min Rain = 0
KQU1 111006Z 01011G20KT 11/M03 A3011 RMK A01 T01071032  RH  038%=      5-min Rain = 0
KQU1 111007Z 01013G20KT 11/M03 A3011 RMK A01 T01071032  RH  038%=      5-min Rain = 0
KQU1 111008Z 00008G14KT 11/M03 A3011 RMK A01 T01061031  RH  038%=      5-min Rain = 0
KQU1 111009Z 02012G21KT 11/M03 A3011 RMK A01 T01061031  RH  038%=      5-min Rain = 0
KQU1 111010Z 01012G17KT 11/M03 A3011 RMK A01 T01061032  RH  038%=      5-min Rain = 0
KQU1 111011Z 01010G18KT 11/M03 A3011 RMK A01 T01061029  RH  039%=      5-min Rain = 0
KQU1 111012Z 00009G16KT 11/M03 A3011 RMK A01 T01061030  RH  039%=      5-min Rain = 0
KQU1 111013Z 01010G15KT 11/M03 A3011 RMK A01 T01051032  RH  038%=      5-min Rain = 0
KQU1 111014Z 01011G16KT 11/M03 A3011 RMK A01 T01051031  RH  038%=      5-min Rain = 0
KQU1 111015Z 02012G21KT 11/M03 A3011 RMK A01 T01051031  RH  038%=      5-min Rain = 0
KQU1 111016Z 01009G15KT 11/M03 A3011 RMK A01 T01051028  RH  039%=      5-min Rain = 0
KQU1 111017Z 01009KT 11/M03 A3011 RMK A01 T01051029  RH  039%=      5-min Rain = 0
KQU1 111018Z 01008G13KT 10/M03 A3011 RMK A01 T01041028  RH  039%=      5-min Rain = 0
KQU1 111019Z 02008G13KT 10/M03 A3011 RMK A01 T01041027  RH  040%=      5-min Rain = 0
KQU1 111020Z 01012G18KT 10/M03 A3011 RMK A01 T01041029  RH  039%=      5-min Rain = 0
KQU1 111021Z 02008KT 10/M03 A3011 RMK A01 T01041029  RH  039%=      5-min Rain = 0
KQU1 111022Z 01007KT 10/M03 A3011 RMK A01 T01041026  RH  040%=      5-min Rain = 0
KQU1 111023Z 00010G15KT 10/M03 A3011 RMK A01 T01031028  RH  040%=      5-min Rain = 0
KQU1 111024Z 01008G13KT 10/M03 A3011 RMK A01 T01031029  RH  039%=      5-min Rain = 0
KQU1 111025Z 02009G15KT 10/M03 A3012 RMK A01 T01031028  RH  040%=      5-min Rain = 0
KQU1 111026Z 00008G15KT 10/M03 A3012 RMK A01 T01031027  RH  040%=      5-min Rain = 0
KQU1 111027Z 01009G14KT 10/M03 A3012 RMK A01 T01031027  RH  040%=      5-min Rain = 0
KQU1 111028Z 00010G16KT 10/M03 A3012 RMK A01 T01031029  RH  039%=      5-min Rain = 0
KQU1 111029Z 35011G18KT 10/M03 A3012 RMK A01 T01031028  RH  040%=      5-min Rain = 0
KQU1 111030Z 00012G18KT 10/M03 A3012 RMK A01 T01021029  RH  040%=      5-min Rain = 0
KQU1 111031Z 01013KT 10/M03 A3012 RMK A01 T01021029  RH  040%=      5-min Rain = 0
KQU1 111032Z 00011KT 10/M03 A3012 RMK A01 T01021028  RH  040%=      5-min Rain = 0
KQU1 111033Z 36016G22KT 10/M03 A3012 RMK A01 T01021030  RH  039%=      5-min Rain = 0
KQU1 111034Z 36015G23KT 10/M03 A3012 RMK A01 T01021031  RH  039%=      5-min Rain = 0
KQU1 111035Z 36013KT 10/M03 A3012 RMK A01 T01021028  RH  040%=      5-min Rain = 0
KQU1 111036Z 01010G15KT 10/M03 A3012 RMK A01 T01021029  RH  040%=      5-min Rain = 0
KQU1 111037Z 00012KT 10/M03 A3013 RMK A01 T01021030  RH  040%=      5-min Rain = 0
KQU1 111038Z 00011G19KT 10/M03 A3013 RMK A01 T01021029  RH  040%=      5-min Rain = 0
KQU1 111039Z 36011G18KT 10/M03 A3013 RMK A01 T01011030  RH  040%=      5-min Rain = 0
KQU1 111040Z 01011G18KT 10/M03 A3013 RMK A01 T01011029  RH  040%=      5-min Rain = 0
KQU1 111041Z 00009G16KT 10/M03 A3013 RMK A01 T01011028  RH  040%=      5-min Rain = 0
KQU1 111042Z 01008G13KT 10/M03 A3013 RMK A01 T01011027  RH  041%=      5-min Rain = 0
KQU1 111043Z 35012KT 10/M03 A3013 RMK A01 T01011028  RH  040%=      5-min Rain = 0
KQU1 111044Z 35012G18KT 10/M03 A3013 RMK A01 T01001030  RH  040%=      5-min Rain = 0
KQU1 111045Z 36009G14KT 10/M03 A3013 RMK A01 T01001028  RH  041%=      5-min Rain = 0
KQU1 111046Z 01012G20KT 10/M03 A3014 RMK A01 T01001030  RH  040%=      5-min Rain = 0
KQU1 111047Z 00011G16KT 10/M03 A3014 RMK A01 T01001029  RH  040%=      5-min Rain = 0
KQU1 111048Z 00007G13KT 10/M03 A3014 RMK A01 T00991031  RH  040%=      5-min Rain = 0
KQU1 111049Z 35013G19KT 10/M03 A3014 RMK A01 T00991030  RH  040%=      5-min Rain = 0
KQU1 111050Z 01015G20KT 10/M03 A3014 RMK A01 T00991033  RH  039%=      5-min Rain = 0
KQU1 111051Z 01012G19KT 10/M03 A3014 RMK A01 T00991031  RH  040%=      5-min Rain = 0
KQU1 111052Z 00011G19KT 10/M03 A3014 RMK A01 T00981033  RH  040%=      5-min Rain = 0
KQU1 111053Z 35015G22KT 10/M03 A3014 RMK A01 T00981031  RH  040%=      5-min Rain = 0
KQU1 111054Z 36015KT 10/M03 A3014 RMK A01 T00981033  RH  040%=      5-min Rain = 0
KQU1 111055Z 35014G21KT 10/M03 A3015 RMK A01 T00981034  RH  039%=      5-min Rain = 0
KQU1 111056Z 00009KT 10/M03 A3015 RMK A01 T00971030  RH  041%=      5-min Rain = 0
KQU1 111057Z 01010G16KT 10/M03 A3014 RMK A01 T00971032  RH  040%=      5-min Rain = 0
KQU1 111058Z 35009G14KT 10/M03 A3015 RMK A01 T00971031  RH  040%=      5-min Rain = 0
KQU1 111059Z 00011G16KT 10/M03 A3015 RMK A01 T00971031  RH  041%=      5-min Rain = 0
KQU1 111100Z 01012G20KT 10/M03 A3015 RMK A01 T00961032  RH  040%=      5-min Rain = 0
KQU1 111101Z 00015G24KT 10/M03 A3015 RMK A01 T00961033  RH  040%=      5-min Rain = 0
KQU1 111102Z 00015G24KT 10/M03 A3015 RMK A01 T00961033  RH  040%=      5-min Rain = 0
KQU1 111103Z 02011G17KT 10/M03 A3015 RMK A01 T00961031  RH  041%=      5-min Rain = 0
KQU1 111104Z 36012G19KT 10/M03 A3015 RMK A01 T00961031  RH  041%=      5-min Rain = 0
KQU1 111105Z 36014G21KT 10/M03 A3015 RMK A01 T00951032  RH  041%=      5-min Rain = 0
KQU1 111106Z 00015G21KT 10/M03 A3015 RMK A01 T00951031  RH  041%=      5-min Rain = 0
KQU1 111107Z 35011G16KT 10/M03 A3015 RMK A01 T00951028  RH  042%=      5-min Rain = 0
KQU1 111108Z 01016G21KT 10/M03 A3015 RMK A01 T00951029  RH  042%=      5-min Rain = 0
KQU1 111109Z 01013G21KT 09/M03 A3015 RMK A01 T00941028  RH  042%=      5-min Rain = 0
KQU1 111110Z 00012G19KT 09/M03 A3015 RMK A01 T00941027  RH  043%=      5-min Rain = 0
KQU1 111111Z 01013G21KT 09/M03 A3015 RMK A01 T00941028  RH  042%=      5-min Rain = 0
KQU1 111112Z 01010G18KT 09/M03 A3015 RMK A01 T00931027  RH  043%=      5-min Rain = 0
KQU1 111113Z 01010G18KT 09/M03 A3015 RMK A01 T00931027  RH  043%=      5-min Rain = 0
KQU1 111114Z 00010G17KT 09/M03 A3015 RMK A01 T00931027  RH  043%=      5-min Rain = 0
KQU1 111115Z 01009G14KT 09/M03 A3015 RMK A01 T00931028  RH  043%=      5-min Rain = 0
KQU1 111116Z 01008G14KT 09/M03 A3015 RMK A01 T00931026  RH  043%=      5-min Rain = 0
KQU1 111117Z 01009G14KT 09/M03 A3015 RMK A01 T00921027  RH  043%=      5-min Rain = 0
KQU1 111118Z 01007KT 09/M03 A3015 RMK A01 T00921027  RH  043%=      5-min Rain = 0
KQU1 111119Z 01008G13KT 09/M03 A3015 RMK A01 T00921026  RH  044%=      5-min Rain = 0
KQU1 111120Z 01010G15KT 09/M03 A3015 RMK A01 T00911028  RH  043%=      5-min Rain = 0
KQU1 111121Z 36009KT 09/M03 A3015 RMK A01 T00911026  RH  044%=      5-min Rain = 0
KQU1 111122Z 00011G16KT 09/M03 A3015 RMK A01 T00911028  RH  043%=      5-min Rain = 0
KQU1 111123Z 01009G14KT 09/M03 A3016 RMK A01 T00911028  RH  043%=      5-min Rain = 0
KQU1 111124Z 01010G18KT 09/M03 A3016 RMK A01 T00911029  RH  043%=      5-min Rain = 0
KQU1 111125Z 36012G19KT 09/M03 A3016 RMK A01 T00901028  RH  043%=      5-min Rain = 0
KQU1 111126Z 35013G20KT 09/M03 A3016 RMK A01 T00901032  RH  042%=      5-min Rain = 0
KQU1 111127Z 01013KT 09/M03 A3016 RMK A01 T00901031  RH  043%=      5-min Rain = 0
KQU1 111128Z 36012G19KT 09/M03 A3016 RMK A01 T00891031  RH  043%=      5-min Rain = 0
KQU1 111129Z 00011G17KT 09/M03 A3016 RMK A01 T00891031  RH  043%=      5-min Rain = 0
KQU1 111130Z 35011KT 09/M03 A3016 RMK A01 T00881034  RH  042%=      5-min Rain = 0
KQU1 111131Z 36009G14KT 09/M03 A3016 RMK A01 T00881031  RH  043%=      5-min Rain = 0
KQU1 111132Z 35017G24KT 09/M04 A3016 RMK A01 T00871036  RH  042%=      5-min Rain = 0
KQU1 111133Z 36013G21KT 09/M04 A3016 RMK A01 T00871037  RH  042%=      5-min Rain = 0
KQU1 111134Z 36012G19KT 09/M04 A3016 RMK A01 T00861037  RH  041%=      5-min Rain = 0
KQU1 111135Z 01012G20KT 09/M04 A3016 RMK A01 T00861037  RH  042%=      5-min Rain = 0
KQU1 111136Z 01013G19KT 09/M04 A3016 RMK A01 T00861038  RH  041%=      5-min Rain = 0
KQU1 111137Z 01011G18KT 09/M04 A3016 RMK A01 T00851040  RH  041%=      5-min Rain = 0
KQU1 111138Z 01011G19KT 09/M04 A3016 RMK A01 T00851039  RH  041%=      5-min Rain = 0
KQU1 111139Z 01010G19KT 08/M04 A3016 RMK A01 T00841040  RH  041%=      5-min Rain = 0
KQU1 111140Z 36010G16KT 08/M04 A3016 RMK A01 T00841040  RH  041%=      5-min Rain = 0
KQU1 111141Z 36011G19KT 08/M04 A3017 RMK A01 T00841039  RH  042%=      5-min Rain = 0
KQU1 111142Z 00013G18KT 08/M04 A3017 RMK A01 T00831040  RH  041%=      5-min Rain = 0
KQU1 111143Z 36015G21KT 08/M04 A3017 RMK A01 T00831041  RH  041%=      5-min Rain = 0
KQU1 111144Z 36013G18KT 08/M04 A3017 RMK A01 T00821039  RH  042%=      5-min Rain = 0
KQU1 111145Z 35019G25KT 08/M05 A3017 RMK A01 T00821046  RH  040%=      5-min Rain = 0
KQU1 111146Z 36015KT 08/M05 A3017 RMK A01 T00811046  RH  040%=      5-min Rain = 0
KQU1 111147Z 36016G21KT 08/M05 A3017 RMK A01 T00801048  RH  040%=      5-min Rain = 0
KQU1 111148Z 35017KT 08/M05 A3017 RMK A01 T00801049  RH  040%=      5-min Rain = 0
KQU1 111149Z 01015G25KT 08/M05 A3017 RMK A01 T00791048  RH  040%=      5-min Rain = 0
KQU1 111150Z 36017G23KT 08/M05 A3017 RMK A01 T00791050  RH  040%=      5-min Rain = 0
KQU1 111151Z 36016G23KT 08/M05 A3017 RMK A01 T00781050  RH  040%=      5-min Rain = 0
KQU1 111152Z 35014G19KT 08/M05 A3017 RMK A01 T00781050  RH  040%=      5-min Rain = 0
KQU1 111153Z 01016G22KT 08/M05 A3017 RMK A01 T00781051  RH  040%=      5-min Rain = 0
KQU1 111154Z 00012KT 08/M05 A3017 RMK A01 T00781049  RH  040%=      5-min Rain = 0
KQU1 111155Z 01014G22KT 08/M05 A3017 RMK A01 T00771052  RH  040%=      5-min Rain = 0
KQU1 111156Z 36017G28KT 08/M05 A3017 RMK A01 T00771054  RH  039%=      5-min Rain = 0
KQU1 111157Z 36012G19KT 08/M05 A3017 RMK A01 T00771053  RH  039%=      5-min Rain = 0
KQU1 111158Z 01012G20KT 08/M05 A3017 RMK A01 T00771052  RH  040%=      5-min Rain = 0
KQU1 111159Z 00013G18KT 08/M06 A3017 RMK A01 T00761055  RH  039%=      5-min Rain = 0
KQU1 111200Z 01012G17KT 08/M06 A3017 RMK A01 T00761055  RH  039%=      5-min Rain = 0
KQU1 111201Z 36012G19KT 08/M06 A3017 RMK A01 T00761055  RH  039%=      5-min Rain = 0
KQU1 111202Z 01013G20KT 08/M05 A3017 RMK A01 T00761054  RH  039%=      5-min Rain = 0
KQU1 111203Z 36011G17KT 08/M06 A3017 RMK A01 T00761055  RH  039%=      5-min Rain = 0
KQU1 111204Z 36009KT 08/M05 A3017 RMK A01 T00751052  RH  040%=      5-min Rain = 0
KQU1 111205Z 36011KT 08/M05 A3017 RMK A01 T00751050  RH  041%=      5-min Rain = 0
KQU1 111206Z 36011KT 08/M05 A3017 RMK A01 T00751051  RH  040%=      5-min Rain = 0
KQU1 111207Z 00010G15KT 08/M05 A3017 RMK A01 T00751052  RH  040%=      5-min Rain = 0
KQU1 111208Z 01010G15KT 07/M05 A3017 RMK A01 T00741052  RH  040%=      5-min Rain = 0
KQU1 111209Z 35012G22KT 07/M05 A3017 RMK A01 T00741053  RH  040%=      5-min Rain = 0
KQU1 111210Z 36016G23KT 07/M06 A3017 RMK A01 T00741055  RH  040%=      5-min Rain = 0
KQU1 111211Z 00012KT 07/M06 A3017 RMK A01 T00731055  RH  040%=      5-min Rain = 0
KQU1 111212Z 00012G18KT 07/M05 A3017 RMK A01 T00731053  RH  040%=      5-min Rain = 0
KQU1 111213Z 01012G21KT 07/M05 A3017 RMK A01 T00731052  RH  041%=      5-min Rain = 0
KQU1 111214Z 35011G17KT 07/M05 A3017 RMK A01 T00731052  RH  041%=      5-min Rain = 0
KQU1 111215Z 00015KT 07/M06 A3018 RMK A01 T00731055  RH  040%=      5-min Rain = 0
KQU1 111216Z 35017G22KT 07/M06 A3018 RMK A01 T00721057  RH  039%=      5-min Rain = 0
KQU1 111217Z 35013G20KT 07/M06 A3018 RMK A01 T00721055  RH  040%=      5-min Rain = 0
KQU1 111218Z 36011G16KT 07/M05 A3018 RMK A01 T00721053  RH  041%=      5-min Rain = 0
KQU1 111219Z 36016G21KT 07/M05 A3018 RMK A01 T00721054  RH  040%=      5-min Rain = 0
KQU1 111220Z 36012KT 07/M06 A3018 RMK A01 T00721055  RH  040%=      5-min Rain = 0
KQU1 111221Z 35011G18KT 07/M05 A3018 RMK A01 T00721053  RH  041%=      5-min Rain = 0
KQU1 111222Z 35012G20KT 07/M05 A3018 RMK A01 T00721054  RH  041%=      5-min Rain = 0
KQU1 111223Z 36013G20KT 07/M06 A3018 RMK A01 T00711055  RH  040%=      5-min Rain = 0
KQU1 111224Z 36012G19KT 07/M05 A3018 RMK A01 T00711053  RH  041%=      5-min Rain = 0
KQU1 111225Z 00015G21KT 07/M05 A3018 RMK A01 T00711054  RH  040%=      5-min Rain = 0
KQU1 111226Z 00015G23KT 07/M06 A3018 RMK A01 T00711056  RH  040%=      5-min Rain = 0
KQU1 111227Z 00014KT 07/M05 A3018 RMK A01 T00711053  RH  041%=      5-min Rain = 0
KQU1 111228Z 36014G19KT 07/M05 A3018 RMK A01 T00711054  RH  040%=      5-min Rain = 0
KQU1 111229Z 36015G21KT 07/M06 A3018 RMK A01 T00711055  RH  040%=      5-min Rain = 0
KQU1 111230Z 35015KT 07/M06 A3018 RMK A01 T00711055  RH  040%=      5-min Rain = 0
KQU1 111231Z 36015G22KT 07/M06 A3018 RMK A01 T00711056  RH  040%=      5-min Rain = 0
KQU1 111232Z 36014G20KT 07/M06 A3018 RMK A01 T00711055  RH  040%=      5-min Rain = 0
KQU1 111233Z 00014KT 07/M05 A3018 RMK A01 T00711053  RH  041%=      5-min Rain = 0
KQU1 111234Z 00016G21KT 07/M05 A3018 RMK A01 T00711053  RH  041%=      5-min Rain = 0
KQU1 111235Z 00016G24KT 07/M06 A3018 RMK A01 T00701055  RH  040%=      5-min Rain = 0
KQU1 111236Z 36015G21KT 07/M06 A3018 RMK A01 T00701056  RH  040%=      5-min Rain = 0
KQU1 111237Z 36012KT 07/M05 A3019 RMK A01 T00701054  RH  041%=      5-min Rain = 0
KQU1 111238Z 35013G21KT 07/M05 A3019 RMK A01 T00701053  RH  041%=      5-min Rain = 0
KQU1 111239Z 35016KT 07/M06 A3019 RMK A01 T00701055  RH  041%=      5-min Rain = 0
KQU1 111240Z 36016G22KT 07/M05 A3019 RMK A01 T00701054  RH  041%=      5-min Rain = 0
KQU1 111241Z 00011G16KT 07/M05 A3019 RMK A01 T00691053  RH  041%=      5-min Rain = 0
KQU1 111242Z 01014G21KT 07/M05 A3019 RMK A01 T00691054  RH  041%=      5-min Rain = 0
KQU1 111243Z 36014G19KT 07/M05 A3019 RMK A01 T00691051  RH  042%=      5-min Rain = 0
KQU1 111244Z 01013G18KT 07/M05 A3019 RMK A01 T00691053  RH  042%=      5-min Rain = 0
KQU1 111245Z 36009G16KT 07/M05 A3019 RMK A01 T00691053  RH  042%=      5-min Rain = 0
KQU1 111246Z 01012G18KT 07/M05 A3019 RMK A01 T00691052  RH  042%=      5-min Rain = 0
KQU1 111247Z 36015G20KT 07/M05 A3019 RMK A01 T00681054  RH  041%=      5-min Rain = 0
KQU1 111248Z 00011KT 07/M05 A3019 RMK A01 T00681053  RH  042%=      5-min Rain = 0
KQU1 111249Z 36012G18KT 07/M05 A3019 RMK A01 T00681054  RH  042%=      5-min Rain = 0
KQU1 111250Z 01010G16KT 07/M05 A3019 RMK A01 T00681053  RH  042%=      5-min Rain = 0
KQU1 111251Z 00012G17KT 07/M05 A302 RMK A01 T00671054  RH  042%=      5-min Rain = 0
KQU1 111252Z 00012KT 07/M05 A302 RMK A01 T00671053  RH  042%=      5-min Rain = 0
KQU1 111253Z 36012KT 07/M06 A302 RMK A01 T00671056  RH  041%=      5-min Rain = 0
KQU1 111254Z 35013KT 07/M06 A302 RMK A01 T00661055  RH  041%=      5-min Rain = 0
KQU1 111255Z 36012G17KT 07/M06 A302 RMK A01 T00661055  RH  042%=      5-min Rain = 0
KQU1 111256Z 35011G16KT 07/M05 A302 RMK A01 T00661054  RH  042%=      5-min Rain = 0
KQU1 111257Z 36012KT 07/M05 A302 RMK A01 T00661054  RH  042%=      5-min Rain = 0
KQU1 111258Z 35012KT 07/M05 A302 RMK A01 T00651054  RH  042%=      5-min Rain = 0
KQU1 111259Z 36010G17KT 07/M05 A302 RMK A01 T00651053  RH  042%=      5-min Rain = 0
KQU1 111300Z 01016G23KT 07/M06 A302 RMK A01 T00651055  RH  042%=      5-min Rain = 0
KQU1 111301Z 35014KT 07/M05 A3021 RMK A01 T00651054  RH  042%=      5-min Rain = 0
KQU1 111302Z 35013G18KT 07/M05 A3021 RMK A01 T00651053  RH  042%=      5-min Rain = 0
KQU1 111303Z 36014KT 07/M05 A3021 RMK A01 T00651053  RH  043%=      5-min Rain = 0
KQU1 111304Z 36011G16KT 07/M05 A3021 RMK A01 T00651051  RH  043%=      5-min Rain = 0
KQU1 111305Z 35012KT 07/M05 A3021 RMK A01 T00651052  RH  043%=      5-min Rain = 0
KQU1 111306Z 36010KT 07/M05 A3021 RMK A01 T00651050  RH  044%=      5-min Rain = 0
KQU1 111307Z 34014KT 06/M05 A3021 RMK A01 T00641052  RH  043%=      5-min Rain = 0
KQU1 111308Z 36013KT 06/M05 A3021 RMK A01 T00641053  RH  043%=      5-min Rain = 0
KQU1 111309Z 36012KT 06/M05 A3021 RMK A01 T00641051  RH  043%=      5-min Rain = 0
KQU1 111310Z 36014G20KT 06/M05 A3021 RMK A01 T00641050  RH  044%=      5-min Rain = 0
KQU1 111311Z 35014G22KT 06/M05 A3021 RMK A01 T00641052  RH  043%=      5-min Rain = 0
KQU1 111312Z 35015KT 07/M05 A3021 RMK A01 T00651051  RH  043%=      5-min Rain = 0
KQU1 111313Z 35014G20KT 07/M05 A3021 RMK A01 T00651051  RH  043%=      5-min Rain = 0
KQU1 111314Z 36013KT 07/M05 A3021 RMK A01 T00651051  RH  043%=      5-min Rain = 0
KQU1 111315Z 35012G17KT 07/M05 A3021 RMK A01 T00651048  RH  044%=      5-min Rain = 0
KQU1 111316Z 36012G17KT 07/M05 A3021 RMK A01 T00651048  RH  044%=      5-min Rain = 0
KQU1 111317Z 36015G22KT 07/M05 A3021 RMK A01 T00651052  RH  043%=      5-min Rain = 0
KQU1 111318Z 00011G16KT 07/M05 A3021 RMK A01 T00651049  RH  044%=      5-min Rain = 0
KQU1 111319Z 36013G18KT 07/M05 A3021 RMK A01 T00651049  RH  044%=      5-min Rain = 0
KQU1 111320Z 36014G19KT 06/M05 A3021 RMK A01 T00641050  RH  044%=      5-min Rain = 0
KQU1 111321Z 36013KT 06/M05 A3021 RMK A01 T00641050  RH  044%=      5-min Rain = 0
KQU1 111322Z 01015KT 06/M05 A3021 RMK A01 T00641052  RH  043%=      5-min Rain = 0
KQU1 111323Z 35013KT 06/M05 A3021 RMK A01 T00641050  RH  044%=      5-min Rain = 0
KQU1 111324Z 36020KT 06/M05 A3021 RMK A01 T00631052  RH  043%=      5-min Rain = 0
KQU1 111325Z 35013KT 06/M05 A3021 RMK A01 T00631049  RH  044%=      5-min Rain = 0
KQU1 111326Z 35016KT 06/M05 A3021 RMK A01 T00631050  RH  044%=      5-min Rain = 0
KQU1 111327Z 36015G20KT 06/M05 A3021 RMK A01 T00621050  RH  044%=      5-min Rain = 0
KQU1 111328Z 36012G20KT 06/M05 A3021 RMK A01 T00621050  RH  044%=      5-min Rain = 0
KQU1 111329Z 35015KT 06/M05 A3021 RMK A01 T00621051  RH  044%=      5-min Rain = 0
KQU1 111330Z 35014KT 06/M05 A3021 RMK A01 T00621050  RH  045%=      5-min Rain = 0
KQU1 111331Z 35015G22KT 06/M05 A3021 RMK A01 T00611051  RH  044%=      5-min Rain = 0
KQU1 111332Z 35017KT 06/M05 A3021 RMK A01 T00611050  RH  045%=      5-min Rain = 0
KQU1 111333Z 00016KT 06/M05 A3021 RMK A01 T00611049  RH  045%=      5-min Rain = 0
KQU1 111334Z 35012G18KT 06/M05 A3021 RMK A01 T00611047  RH  046%=      5-min Rain = 0
KQU1 111335Z 36016G22KT 06/M05 A3022 RMK A01 T00611048  RH  046%=      5-min Rain = 0
KQU1 111336Z 35014KT 06/M05 A3022 RMK A01 T00611048  RH  046%=      5-min Rain = 0
KQU1 111337Z 35017KT 06/M05 A3022 RMK A01 T00611048  RH  045%=      5-min Rain = 0
KQU1 111338Z 35012KT 06/M05 A3022 RMK A01 T00611047  RH  046%=      5-min Rain = 0
KQU1 111339Z 35011KT 06/M05 A3022 RMK A01 T00611045  RH  046%=      5-min Rain = 0
KQU1 111340Z 36011G17KT 06/M04 A3022 RMK A01 T00611044  RH  047%=      5-min Rain = 0
KQU1 111341Z 36014G19KT 06/M04 A3022 RMK A01 T00611044  RH  047%=      5-min Rain = 0
KQU1 111342Z 35016G22KT 06/M05 A3022 RMK A01 T00601045  RH  047%=      5-min Rain = 0
KQU1 111343Z 36017G25KT 06/M05 A3022 RMK A01 T00601046  RH  047%=      5-min Rain = 0
KQU1 111344Z 35015G20KT 06/M04 A3022 RMK A01 T00601044  RH  047%=      5-min Rain = 0
KQU1 111345Z 35012G17KT 06/M04 A3022 RMK A01 T00601043  RH  048%=      5-min Rain = 0
KQU1 111346Z 35018G24KT 06/M05 A3022 RMK A01 T00601045  RH  047%=      5-min Rain = 0
KQU1 111347Z 00014G19KT 06/M05 A3022 RMK A01 T00601047  RH  046%=      5-min Rain = 0
KQU1 111348Z 36013G19KT 06/M05 A3022 RMK A01 T00601046  RH  047%=      5-min Rain = 0
KQU1 111349Z 35013G19KT 06/M04 A3022 RMK A01 T00601044  RH  047%=      5-min Rain = 0
KQU1 111350Z 35012G17KT 06/M05 A3023 RMK A01 T00601045  RH  047%=      5-min Rain = 0
KQU1 111351Z 36013KT 06/M04 A3023 RMK A01 T00601043  RH  048%=      5-min Rain = 0
KQU1 111352Z 35011G16KT 06/M04 A3023 RMK A01 T00591042  RH  048%=      5-min Rain = 0
KQU1 111353Z 35015G22KT 06/M04 A3023 RMK A01 T00591044  RH  048%=      5-min Rain = 0
KQU1 111354Z 35011G17KT 06/M04 A3023 RMK A01 T00581041  RH  049%=      5-min Rain = 0
KQU1 111355Z 35014G20KT 06/M04 A3023 RMK A01 T00581041  RH  049%=      5-min Rain = 0
KQU1 111356Z 35019G26KT 06/M04 A3023 RMK A01 T00571041  RH  049%=      5-min Rain = 0
KQU1 111357Z 35015G20KT 06/M04 A3023 RMK A01 T00561039  RH  050%=      5-min Rain = 0
KQU1 111358Z 35013KT 06/M04 A3023 RMK A01 T00561037  RH  051%=      5-min Rain = 0
KQU1 111359Z 35011G16KT 06/M04 A3023 RMK A01 T00561037  RH  051%=      5-min Rain = 0
KQU1 111400Z 35016G22KT 06/M04 A3023 RMK A01 T00561037  RH  051%=      5-min Rain = 0
KQU1 111401Z 35014G21KT 06/M04 A3023 RMK A01 T00551037  RH  052%=      5-min Rain = 0
KQU1 111402Z 35015G22KT 06/M04 A3023 RMK A01 T00551036  RH  052%=      5-min Rain = 0
KQU1 111403Z 00013G19KT 06/M04 A3023 RMK A01 T00551036  RH  052%=      5-min Rain = 0
KQU1 111404Z 36013G19KT 06/M03 A3023 RMK A01 T00551034  RH  053%=      5-min Rain = 0
KQU1 111405Z 36014G19KT 06/M04 A3023 RMK A01 T00551035  RH  052%=      5-min Rain = 0
KQU1 111406Z 36009G16KT 06/M03 A3023 RMK A01 T00551034  RH  053%=      5-min Rain = 0
KQU1 111407Z 35014KT 06/M03 A3023 RMK A01 T00551034  RH  053%=      5-min Rain = 0
KQU1 111408Z 35013KT 06/M04 A3023 RMK A01 T00551035  RH  052%=      5-min Rain = 0
KQU1 111409Z 35012G21KT 06/M04 A3023 RMK A01 T00551035  RH  052%=      5-min Rain = 0
KQU1 111410Z 34013G18KT 06/M03 A3024 RMK A01 T00551033  RH  053%=      5-min Rain = 0
KQU1 111411Z 34019G24KT 06/M04 A3023 RMK A01 T00551036  RH  052%=      5-min Rain = 0
KQU1 111412Z 35014G23KT 05/M03 A3023 RMK A01 T00541034  RH  053%=      5-min Rain = 0
KQU1 111413Z 35014KT 05/M03 A3024 RMK A01 T00541033  RH  053%=      5-min Rain = 0
KQU1 111414Z 35018G27KT 05/M03 A3024 RMK A01 T00541034  RH  053%=      5-min Rain = 0
KQU1 111415Z 34019G26KT 05/M04 A3024 RMK A01 T00531035  RH  053%=      5-min Rain = 0
KQU1 111416Z 35018G23KT 05/M03 A3024 RMK A01 T00531034  RH  054%=      5-min Rain = 0
KQU1 111417Z 36015G20KT 05/M03 A3024 RMK A01 T00531033  RH  054%=      5-min Rain = 0
KQU1 111418Z 35018G23KT 05/M04 A3024 RMK A01 T00531035  RH  053%=      5-min Rain = 0
KQU1 111419Z 35014KT 05/M03 A3024 RMK A01 T00531033  RH  054%=      5-min Rain = 0
KQU1 111420Z 35012KT 05/M03 A3024 RMK A01 T00531032  RH  054%=      5-min Rain = 0
KQU1 111421Z 35016G22KT 05/M04 A3024 RMK A01 T00531035  RH  053%=      5-min Rain = 0
KQU1 111422Z 00014G20KT 05/M03 A3024 RMK A01 T00531032  RH  054%=      5-min Rain = 0
KQU1 111423Z 35021G28KT 05/M03 A3024 RMK A01 T00531034  RH  053%=      5-min Rain = 0
KQU1 111424Z 35019G24KT 05/M04 A3024 RMK A01 T00521035  RH  054%=      5-min Rain = 0
KQU1 111425Z 35019KT 05/M04 A3024 RMK A01 T00511036  RH  053%=      5-min Rain = 0
KQU1 111426Z 34016G22KT 05/M04 A3024 RMK A01 T00511035  RH  054%=      5-min Rain = 0
KQU1 111427Z 36014G22KT 05/M03 A3024 RMK A01 T00521033  RH  054%=      5-min Rain = 0
KQU1 111428Z 35013G18KT 05/M03 A3024 RMK A01 T00521033  RH  054%=      5-min Rain = 0
KQU1 111429Z 36015G22KT 05/M03 A3024 RMK A01 T00521033  RH  054%=      5-min Rain = 0
KQU1 111430Z 35017G25KT 05/M03 A3024 RMK A01 T00521033  RH  054%=      5-min Rain = 0
KQU1 111431Z 35020G28KT 05/M03 A3024 RMK A01 T00521034  RH  054%=      5-min Rain = 0
KQU1 111432Z 35018G23KT 05/M03 A3024 RMK A01 T00521034  RH  054%=      5-min Rain = 0
KQU1 111433Z 35021G27KT 05/M03 A3024 RMK A01 T00521034  RH  054%=      5-min Rain = 0
KQU1 111434Z 34019G25KT 05/M04 A3024 RMK A01 T00521035  RH  053%=      5-min Rain = 0
KQU1 111435Z 35012G17KT 05/M03 A3024 RMK A01 T00521033  RH  054%=      5-min Rain = 0
KQU1 111436Z 36019G26KT 05/M03 A3024 RMK A01 T00521034  RH  053%=      5-min Rain = 0
KQU1 111437Z 35017G23KT 05/M03 A3024 RMK A01 T00521034  RH  054%=      5-min Rain = 0
KQU1 111438Z 35011G17KT 05/M03 A3024 RMK A01 T00521033  RH  054%=      5-min Rain = 0
KQU1 111439Z 35014KT 05/M03 A3024 RMK A01 T00531032  RH  054%=      5-min Rain = 0
KQU1 111440Z 35014G23KT 05/M03 A3025 RMK A01 T00541033  RH  054%=      5-min Rain = 0
KQU1 111441Z 35012G20KT 05/M04 A3025 RMK A01 T00541035  RH  053%=      5-min Rain = 0
KQU1 111442Z 36017G23KT 05/M04 A3025 RMK A01 T00541035  RH  053%=      5-min Rain = 0
KQU1 111443Z 35017G22KT 05/M04 A3025 RMK A01 T00541037  RH  052%=      5-min Rain = 0
KQU1 111444Z 35012G18KT 05/M04 A3025 RMK A01 T00531035  RH  053%=      5-min Rain = 0
KQU1 111445Z 35014G20KT 05/M03 A3025 RMK A01 T00541034  RH  053%=      5-min Rain = 0
KQU1 111446Z 35015G22KT 05/M04 A3025 RMK A01 T00541036  RH  052%=      5-min Rain = 0
KQU1 111447Z 34015KT 05/M04 A3025 RMK A01 T00541037  RH  052%=      5-min Rain = 0
KQU1 111448Z 36017G25KT 05/M04 A3025 RMK A01 T00531036  RH  053%=      5-min Rain = 0
KQU1 111449Z 35017G24KT 05/M04 A3025 RMK A01 T00531038  RH  052%=      5-min Rain = 0
KQU1 111450Z 35014G23KT 05/M04 A3025 RMK A01 T00531037  RH  052%=      5-min Rain = 0
KQU1 111451Z 36015G23KT 05/M04 A3025 RMK A01 T00531038  RH  052%=      5-min Rain = 0
KQU1 111452Z 34018G26KT 05/M04 A3025 RMK A01 T00531041  RH  051%=      5-min Rain = 0
KQU1 111453Z 35014G21KT 05/M04 A3025 RMK A01 T00531040  RH  051%=      5-min Rain = 0
KQU1 111454Z 35016KT 05/M04 A3025 RMK A01 T00531041  RH  051%=      5-min Rain = 0
KQU1 111455Z 35015G23KT 05/M05 A3025 RMK A01 T00531045  RH  049%=      5-min Rain = 0
KQU1 111456Z 35018G23KT 05/M05 A3025 RMK A01 T00521049  RH  048%=      5-min Rain = 0
KQU1 111457Z 35017G25KT 05/M05 A3026 RMK A01 T00511047  RH  049%=      5-min Rain = 0
KQU1 111458Z 35017KT 05/M05 A3025 RMK A01 T00521048  RH  048%=      5-min Rain = 0
KQU1 111459Z 35020G27KT 05/M05 A3026 RMK A01 T00521050  RH  048%=      5-min Rain = 0
KQU1 111500Z 35021KT 05/M05 A3026 RMK A01 T00531049  RH  048%=      5-min Rain = 0
KQU1 111501Z 35019KT 05/M05 A3026 RMK A01 T00541049  RH  047%=      5-min Rain = 0
KQU1 111502Z 35015KT 06/M05 A3026 RMK A01 T00551047  RH  048%=      5-min Rain = 0
KQU1 111503Z 35018KT 06/M05 A3026 RMK A01 T00561048  RH  047%=      5-min Rain = 0
KQU1 111504Z 35018KT 06/M05 A3026 RMK A01 T00561050  RH  046%=      5-min Rain = 0
KQU1 111505Z 36015G20KT 06/M05 A3026 RMK A01 T00571048  RH  047%=      5-min Rain = 0
KQU1 111506Z 36017G26KT 06/M05 A3026 RMK A01 T00581049  RH  046%=      5-min Rain = 0
KQU1 111507Z 36018G25KT 06/M05 A3026 RMK A01 T00581049  RH  046%=      5-min Rain = 0
KQU1 111508Z 35015G20KT 06/M05 A3026 RMK A01 T00591049  RH  046%=      5-min Rain = 0
KQU1 111509Z 35014G20KT 06/M05 A3026 RMK A01 T00591048  RH  046%=      5-min Rain = 0
KQU1 111510Z 35014G19KT 06/M05 A3026 RMK A01 T00581049  RH  046%=      5-min Rain = 0
KQU1 111511Z 35014G23KT 06/M05 A3026 RMK A01 T00581049  RH  046%=      5-min Rain = 0
KQU1 111512Z 35015G20KT 06/M05 A3026 RMK A01 T00581047  RH  047%=      5-min Rain = 0
KQU1 111513Z 36017G23KT 06/M05 A3026 RMK A01 T00581050  RH  046%=      5-min Rain = 0
KQU1 111514Z 35016KT 06/M05 A3026 RMK A01 T00581046  RH  047%=      5-min Rain = 0
KQU1 111515Z 35012G19KT 06/M05 A3026 RMK A01 T00591046  RH  047%=      5-min Rain = 0
KQU1 111516Z 36018KT 06/M05 A3026 RMK A01 T00601048  RH  046%=      5-min Rain = 0
KQU1 111517Z 35014G19KT 06/M05 A3026 RMK A01 T00601047  RH  046%=      5-min Rain = 0
KQU1 111518Z 35013G22KT 06/M05 A3026 RMK A01 T00611046  RH  046%=      5-min Rain = 0
KQU1 111519Z 01014KT 06/M05 A3026 RMK A01 T00621047  RH  046%=      5-min Rain = 0
KQU1 111520Z 01012KT 06/M05 A3026 RMK A01 T00621046  RH  046%=      5-min Rain = 0
KQU1 111521Z 01020G25KT 06/M05 A3026 RMK A01 T00621050  RH  044%=      5-min Rain = 0
KQU1 111522Z 36018KT 06/M05 A3026 RMK A01 T00611052  RH  044%=      5-min Rain = 0
KQU1 111523Z 36013G21KT 06/M05 A3026 RMK A01 T00621049  RH  045%=      5-min Rain = 0
KQU1 111524Z 35012G18KT 06/M05 A3026 RMK A01 T00631049  RH  045%=      5-min Rain = 0
KQU1 111525Z 35018G23KT 06/M05 A3026 RMK A01 T00631050  RH  044%=      5-min Rain = 0
KQU1 111526Z 35020G28KT 06/M05 A3026 RMK A01 T00621053  RH  043%=      5-min Rain = 0
KQU1 111527Z 35020G27KT 06/M05 A3026 RMK A01 T00611054  RH  044%=      5-min Rain = 0
KQU1 111528Z 35021G27KT 06/M06 A3026 RMK A01 T00591055  RH  044%=      5-min Rain = 0
KQU1 111529Z 36015G26KT 06/M05 A3026 RMK A01 T00581054  RH  044%=      5-min Rain = 0
KQU1 111530Z 36021G27KT 06/M06 A3026 RMK A01 T00581056  RH  044%=      5-min Rain = 0
KQU1 111531Z 35018G26KT 06/M05 A3026 RMK A01 T00581054  RH  044%=      5-min Rain = 0
KQU1 111532Z 36021G26KT 06/M06 A3026 RMK A01 T00581055  RH  044%=      5-min Rain = 0
KQU1 111533Z 35017KT 06/M06 A3026 RMK A01 T00581056  RH  044%=      5-min Rain = 0
KQU1 111534Z 35018G25KT 06/M06 A3026 RMK A01 T00571059  RH  043%=      5-min Rain = 0
KQU1 111535Z 35021G26KT 06/M06 A3026 RMK A01 T00571059  RH  043%=      5-min Rain = 0
KQU1 111536Z 35017G25KT 06/M06 A3026 RMK A01 T00571056  RH  044%=      5-min Rain = 0
KQU1 111537Z 35019G26KT 06/M06 A3026 RMK A01 T00581057  RH  043%=      5-min Rain = 0
KQU1 111538Z 35020KT 06/M06 A3026 RMK A01 T00581059  RH  043%=      5-min Rain = 0
KQU1 111539Z 35015KT 06/M05 A3026 RMK A01 T00581054  RH  044%=      5-min Rain = 0
KQU1 111540Z 35019KT 06/M06 A3026 RMK A01 T00591058  RH  043%=      5-min Rain = 0
KQU1 111541Z 35019G24KT 06/M06 A3026 RMK A01 T00591059  RH  042%=      5-min Rain = 0
KQU1 111542Z 01016G21KT 06/M06 A3026 RMK A01 T00591059  RH  042%=      5-min Rain = 0
KQU1 111543Z 01014G22KT 06/M06 A3027 RMK A01 T00591059  RH  042%=      5-min Rain = 0
KQU1 111544Z 36012G17KT 06/M06 A3027 RMK A01 T00601057  RH  043%=      5-min Rain = 0
KQU1 111545Z 00012KT 06/M06 A3027 RMK A01 T00611056  RH  043%=      5-min Rain = 0
KQU1 111546Z 36012G20KT 06/M06 A3027 RMK A01 T00611056  RH  043%=      5-min Rain = 0
KQU1 111547Z 35013G19KT 06/M06 A3027 RMK A01 T00621057  RH  042%=      5-min Rain = 0
KQU1 111548Z 35016KT 06/M06 A3027 RMK A01 T00621055  RH  043%=      5-min Rain = 0
KQU1 111549Z 34018G24KT 06/M06 A3027 RMK A01 T00611060  RH  042%=      5-min Rain = 0
KQU1 111550Z 35018G24KT 06/M06 A3027 RMK A01 T00611058  RH  042%=      5-min Rain = 0
KQU1 111551Z 35017KT 06/M06 A3027 RMK A01 T00601059  RH  042%=      5-min Rain = 0
KQU1 111552Z 35015KT 06/M06 A3027 RMK A01 T00601057  RH  043%=      5-min Rain = 0
KQU1 111553Z 35016G22KT 06/M06 A3028 RMK A01 T00601057  RH  043%=      5-min Rain = 0
KQU1 111554Z 35016G22KT 06/M06 A3028 RMK A01 T00601058  RH  043%=      5-min Rain = 0
KQU1 111555Z 35017KT 06/M06 A3028 RMK A01 T00601057  RH  043%=      5-min Rain = 0
KQU1 111556Z 36018G24KT 06/M06 A3028 RMK A01 T00611057  RH  043%=      5-min Rain = 0
KQU1 111557Z 35015G24KT 06/M06 A3028 RMK A01 T00611057  RH  042%=      5-min Rain = 0
KQU1 111558Z 35019KT 06/M06 A3028 RMK A01 T00621059  RH  042%=      5-min Rain = 0
KQU1 111559Z 35017G22KT 06/M06 A3028 RMK A01 T00621058  RH  042%=      5-min Rain = 0
KQU1 111600Z 35013G21KT 06/M06 A3028 RMK A01 T00631056  RH  042%=      5-min Rain = 0
KQU1 111601Z 36010G17KT 06/M05 A3028 RMK A01 T00641054  RH  043%=      5-min Rain = 0
KQU1 111602Z 36016G25KT 07/M06 A3028 RMK A01 T00671056  RH  041%=      5-min Rain = 0
KQU1 111603Z 00018G24KT 07/M06 A3028 RMK A01 T00681060  RH  040%=      5-min Rain = 0
KQU1 111604Z 36013G21KT 07/M06 A3028 RMK A01 T00691059  RH  040%=      5-min Rain = 0
KQU1 111605Z 36014G21KT 07/M06 A3029 RMK A01 T00691061  RH  039%=      5-min Rain = 0
KQU1 111606Z 36012G19KT 07/M06 A3029 RMK A01 T00701055  RH  041%=      5-min Rain = 0
KQU1 111607Z 35012G17KT 07/M06 A3029 RMK A01 T00721057  RH  039%=      5-min Rain = 0
KQU1 111608Z 34015G20KT 07/M06 A3029 RMK A01 T00731059  RH  039%=      5-min Rain = 0
KQU1 111609Z 35019KT 07/M07 A3029 RMK A01 T00721065  RH  037%=      5-min Rain = 0
KQU1 111610Z 36011G19KT 07/M06 A3029 RMK A01 T00711061  RH  038%=      5-min Rain = 0
KQU1 111611Z 35015KT 07/M06 A3029 RMK A01 T00721062  RH  038%=      5-min Rain = 0
KQU1 111612Z 34012G19KT 07/M06 A3029 RMK A01 T00731059  RH  039%=      5-min Rain = 0
KQU1 111613Z 34015KT 07/M06 A3029 RMK A01 T00721064  RH  037%=      5-min Rain = 0
KQU1 111614Z 35017G22KT 07/M06 A3029 RMK A01 T00721063  RH  038%=      5-min Rain = 0
KQU1 111615Z 35012G19KT 07/M06 A303 RMK A01 T00731061  RH  038%=      5-min Rain = 0
KQU1 111616Z 35012G19KT 08/M06 A303 RMK A01 T00751060  RH  038%=      5-min Rain = 0
KQU1 111617Z 35012G22KT 08/M06 A303 RMK A01 T00771061  RH  037%=      5-min Rain = 0
KQU1 111618Z 02015G25KT 08/M07 A303 RMK A01 T00771067  RH  035%=      5-min Rain = 0
KQU1 111619Z 02019G25KT 08/M07 A303 RMK A01 T00751067  RH  036%=      5-min Rain = 0
KQU1 111620Z 01012G19KT 07/M07 A303 RMK A01 T00741067  RH  036%=      5-min Rain = 0
KQU1 111621Z 01012KT 07/M07 A303 RMK A01 T00741067  RH  036%=      5-min Rain = 0
KQU1 111622Z 01012G17KT 08/M06 A303 RMK A01 T00751064  RH  036%=      5-min Rain = 0
KQU1 111623Z 01009KT 08/M07 A303 RMK A01 T00771065  RH  036%=      5-min Rain = 0
KQU1 111624Z 36012G17KT 08/M06 A303 RMK A01 T00781064  RH  036%=      5-min Rain = 0
KQU1 111625Z 00007G14KT 08/M06 A303 RMK A01 T00791062  RH  036%=      5-min Rain = 0
KQU1 111626Z 36010G17KT 08/M07 A303 RMK A01 T00811065  RH  035%=      5-min Rain = 0
KQU1 111627Z 01011G17KT 08/M06 A303 RMK A01 T00811063  RH  035%=      5-min Rain = 0
KQU1 111628Z 01009G16KT 08/M07 A303 RMK A01 T00821065  RH  035%=      5-min Rain = 0
KQU1 111629Z 01009G14KT 08/M06 A303 RMK A01 T00831064  RH  035%=      5-min Rain = 0
KQU1 111630Z 36015G22KT 08/M07 A303 RMK A01 T00841065  RH  034%=      5-min Rain = 0
KQU1 111631Z 35015KT 08/M07 A303 RMK A01 T00831070  RH  033%=      5-min Rain = 0
KQU1 111632Z 35010G18KT 08/M07 A303 RMK A01 T00841067  RH  034%=      5-min Rain = 0
KQU1 111633Z 36010G17KT 09/M07 A303 RMK A01 T00851066  RH  034%=      5-min Rain = 0
KQU1 111634Z 01013G18KT 09/M07 A303 RMK A01 T00861066  RH  033%=      5-min Rain = 0
KQU1 111635Z 00012G18KT 09/M07 A303 RMK A01 T00851067  RH  033%=      5-min Rain = 0
KQU1 111636Z 35007G14KT 09/M07 A303 RMK A01 T00851068  RH  033%=      5-min Rain = 0
KQU1 111637Z 34012G22KT 09/M07 A303 RMK A01 T00861067  RH  033%=      5-min Rain = 0
KQU1 111638Z 34017G23KT 09/M07 A303 RMK A01 T00861069  RH  033%=      5-min Rain = 0
KQU1 111639Z 35016KT 09/M07 A303 RMK A01 T00851070  RH  033%=      5-min Rain = 0
KQU1 111640Z 34016KT 08/M07 A303 RMK A01 T00841072  RH  032%=      5-min Rain = 0
KQU1 111641Z 35013KT 08/M07 A303 RMK A01 T00831070  RH  033%=      5-min Rain = 0
KQU1 111642Z 34016G22KT 08/M07 A303 RMK A01 T00841071  RH  033%=      5-min Rain = 0
KQU1 111643Z 34017KT 08/M07 A303 RMK A01 T00821074  RH  032%=      5-min Rain = 0
KQU1 111644Z 35015KT 08/M07 A303 RMK A01 T00821070  RH  033%=      5-min Rain = 0
KQU1 111645Z 36020G25KT 08/M07 A303 RMK A01 T00821071  RH  033%=      5-min Rain = 0
KQU1 111646Z 35013KT 08/M07 A303 RMK A01 T00831069  RH  034%=      5-min Rain = 0
KQU1 111647Z 34016G21KT 08/M07 A303 RMK A01 T00841070  RH  033%=      5-min Rain = 0
KQU1 111648Z 34017KT 08/M07 A303 RMK A01 T00831072  RH  032%=      5-min Rain = 0
KQU1 111649Z 34015G21KT 08/M07 A303 RMK A01 T00831072  RH  032%=      5-min Rain = 0
KQU1 111650Z 35016KT 08/M07 A303 RMK A01 T00831073  RH  032%=      5-min Rain = 0
KQU1 111651Z 35015G22KT 08/M07 A303 RMK A01 T00821071  RH  033%=      5-min Rain = 0
KQU1 111652Z 00015G21KT 08/M07 A303 RMK A01 T00831069  RH  033%=      5-min Rain = 0
KQU1 111653Z 00014G20KT 08/M07 A303 RMK A01 T00821070  RH  033%=      5-min Rain = 0
KQU1 111654Z 36013G20KT 08/M07 A303 RMK A01 T00821070  RH  033%=      5-min Rain = 0
KQU1 111655Z 36008G15KT 08/M07 A303 RMK A01 T00821066  RH  034%=      5-min Rain = 0
KQU1 111656Z 35013G21KT 08/M06 A303 RMK A01 T00841063  RH  035%=      5-min Rain = 0
KQU1 111657Z 36016G24KT 09/M07 A303 RMK A01 T00851066  RH  034%=      5-min Rain = 0
KQU1 111658Z 36017G23KT 09/M07 A303 RMK A01 T00851070  RH  033%=      5-min Rain = 0
KQU1 111659Z 35013G18KT 09/M07 A303 RMK A01 T00861067  RH  033%=      5-min Rain = 0
KQU1 111700Z 00012G17KT 09/M07 A303 RMK A01 T00871066  RH  033%=      5-min Rain = 0
KQU1 111701Z 00012G18KT 09/M07 A303 RMK A01 T00871067  RH  033%=      5-min Rain = 0
KQU1 111702Z 35014G20KT 09/M07 A303 RMK A01 T00881067  RH  033%=      5-min Rain = 0
KQU1 111703Z 00013G18KT 09/M07 A303 RMK A01 T00891067  RH  033%=      5-min Rain = 0
KQU1 111704Z 00012G20KT 09/M07 A303 RMK A01 T00901067  RH  032%=      5-min Rain = 0
KQU1 111705Z 35011G22KT 09/M07 A303 RMK A01 T00901069  RH  032%=      5-min Rain = 0
KQU1 111706Z 36012G19KT 09/M07 A303 RMK A01 T00921066  RH  032%=      5-min Rain = 0
KQU1 111707Z 35017G22KT 09/M07 A3029 RMK A01 T00931069  RH  031%=      5-min Rain = 0
KQU1 111708Z 01014G19KT 09/M07 A3029 RMK A01 T00921070  RH  031%=      5-min Rain = 0
KQU1 111709Z 02015G21KT 09/M07 A3029 RMK A01 T00921070  RH  031%=      5-min Rain = 0
KQU1 111710Z 36011G19KT 09/M07 A3029 RMK A01 T00921068  RH  032%=      5-min Rain = 0
KQU1 111711Z 01015G21KT 09/M07 A3029 RMK A01 T00921071  RH  031%=      5-min Rain = 0
KQU1 111712Z 00016G23KT 09/M07 A3029 RMK A01 T00931071  RH  031%=      5-min Rain = 0
KQU1 111713Z 00013G24KT 09/M07 A3029 RMK A01 T00931073  RH  030%=      5-min Rain = 0
KQU1 111714Z 02015G23KT 09/M07 A3029 RMK A01 T00941072  RH  030%=      5-min Rain = 0
KQU1 111715Z 36012G22KT 09/M07 A3029 RMK A01 T00931069  RH  031%=      5-min Rain = 0
KQU1 111716Z 35015KT 09/M07 A3029 RMK A01 T00941071  RH  030%=      5-min Rain = 0
KQU1 111717Z 36011G17KT 09/M07 A3029 RMK A01 T00941068  RH  031%=      5-min Rain = 0
KQU1 111718Z 35020G25KT 09/M07 A3029 RMK A01 T00941072  RH  030%=      5-min Rain = 0
KQU1 111719Z 00014G20KT 09/M07 A3029 RMK A01 T00941072  RH  030%=      5-min Rain = 0
KQU1 111720Z 01011G20KT 10/M07 A3029 RMK A01 T00951069  RH  031%=      5-min Rain = 0
KQU1 111721Z 36015G22KT 10/M07 A3029 RMK A01 T00961072  RH  030%=      5-min Rain = 0
KQU1 111722Z 35017G24KT 10/M07 A3029 RMK A01 T00961073  RH  030%=      5-min Rain = 0
KQU1 111723Z 36016G22KT 10/M07 A3029 RMK A01 T00961073  RH  030%=      5-min Rain = 0
KQU1 111724Z 35015G23KT 10/M07 A3029 RMK A01 T00961071  RH  030%=      5-min Rain = 0
KQU1 111725Z 35016G24KT 10/M07 A3029 RMK A01 T00961072  RH  030%=      5-min Rain = 0
KQU1 111726Z 35010G17KT 10/M07 A3029 RMK A01 T00971066  RH  031%=      5-min Rain = 0
KQU1 111727Z 00016G23KT 10/M07 A3029 RMK A01 T00991068  RH  030%=      5-min Rain = 0
KQU1 111728Z 36015G22KT 10/M07 A3029 RMK A01 T00981070  RH  030%=      5-min Rain = 0
KQU1 111729Z 35020G27KT 10/M07 A3029 RMK A01 T00981070  RH  030%=      5-min Rain = 0
KQU1 111730Z 36017G24KT 10/M07 A3029 RMK A01 T00971069  RH  030%=      5-min Rain = 0
KQU1 111731Z 36014G25KT 10/M07 A3029 RMK A01 T00991065  RH  031%=      5-min Rain = 0
KQU1 111732Z 36015G23KT 10/M07 A3029 RMK A01 T01001066  RH  030%=      5-min Rain = 0
KQU1 111733Z 02013G19KT 10/M07 A3029 RMK A01 T01001066  RH  031%=      5-min Rain = 0
KQU1 111734Z 00016G25KT 10/M07 A3029 RMK A01 T01001066  RH  030%=      5-min Rain = 0
KQU1 111735Z 36016KT 10/M07 A3029 RMK A01 T00971068  RH  030%=      5-min Rain = 0
KQU1 111736Z 35020G29KT 10/M07 A3029 RMK A01 T00981065  RH  031%=      5-min Rain = 0
KQU1 111737Z 34021G28KT 10/M07 A3029 RMK A01 T00971067  RH  031%=      5-min Rain = 0
KQU1 111738Z 02012G20KT 10/M06 A3029 RMK A01 T00971064  RH  032%=      5-min Rain = 0
KQU1 111739Z 01008G15KT 10/M06 A3029 RMK A01 T00961063  RH  032%=      5-min Rain = 0
KQU1 111740Z 35007G13KT 10/M06 A3029 RMK A01 T00971061  RH  032%=      5-min Rain = 0
KQU1 111741Z 01012G22KT 10/M06 A3029 RMK A01 T00981062  RH  032%=      5-min Rain = 0
KQU1 111742Z 01015G24KT 10/M07 A3029 RMK A01 T00971066  RH  031%=      5-min Rain = 0
KQU1 111743Z 35011G21KT 09/M07 A3029 RMK A01 T00941065  RH  032%=      5-min Rain = 0
KQU1 111744Z 34011KT 10/M06 A3029 RMK A01 T00951061  RH  033%=      5-min Rain = 0
KQU1 111745Z 00013G20KT 10/M06 A3029 RMK A01 T00951063  RH  032%=      5-min Rain = 0
KQU1 111746Z 01014G20KT 09/M07 A3029 RMK A01 T00941066  RH  032%=      5-min Rain = 0
KQU1 111747Z 00014G21KT 09/M07 A3029 RMK A01 T00931067  RH  032%=      5-min Rain = 0
KQU1 111748Z 02018G26KT 09/M07 A3029 RMK A01 T00911068  RH  032%=      5-min Rain = 0
KQU1 111749Z 02015G21KT 09/M06 A3029 RMK A01 T00891064  RH  033%=      5-min Rain = 0
KQU1 111750Z 01014G22KT 09/M07 A3029 RMK A01 T00881065  RH  033%=      5-min Rain = 0
KQU1 111751Z 36011G18KT 09/M07 A3029 RMK A01 T00871065  RH  033%=      5-min Rain = 0
KQU1 111752Z 01013G19KT 09/M06 A3029 RMK A01 T00881064  RH  033%=      5-min Rain = 0
KQU1 111753Z 00010G15KT 09/M06 A3029 RMK A01 T00881064  RH  033%=      5-min Rain = 0
KQU1 111754Z 00014KT 09/M07 A3029 RMK A01 T00881065  RH  033%=      5-min Rain = 0
KQU1 111755Z 36010G18KT 09/M06 A3029 RMK A01 T00891063  RH  033%=      5-min Rain = 0
KQU1 111756Z 36016G21KT 09/M07 A3029 RMK A01 T00901067  RH  032%=      5-min Rain = 0
KQU1 111757Z 35018G25KT 09/M07 A3029 RMK A01 T00901069  RH  032%=      5-min Rain = 0
KQU1 111758Z 35018G25KT 09/M07 A3029 RMK A01 T00881069  RH  032%=      5-min Rain = 0
KQU1 111759Z 34017G26KT 09/M07 A3029 RMK A01 T00881069  RH  032%=      5-min Rain = 0
KQU1 111800Z 35016G21KT 09/M07 A3029 RMK A01 T00881069  RH  032%=      5-min Rain = 0
KQU1 111801Z 36009KT 09/M06 A3029 RMK A01 T00901064  RH  033%=      5-min Rain = 0
KQU1 111802Z 35012G17KT 09/M06 A3029 RMK A01 T00921063  RH  033%=      5-min Rain = 0
KQU1 111803Z 35015KT 09/M07 A3029 RMK A01 T00931069  RH  031%=      5-min Rain = 0
KQU1 111804Z 35012G22KT 09/M07 A3029 RMK A01 T00931067  RH  032%=      5-min Rain = 0
KQU1 111805Z 36009G15KT 09/M07 A3029 RMK A01 T00941065  RH  032%=      5-min Rain = 0
KQU1 111806Z 35011G19KT 09/M07 A3029 RMK A01 T00941065  RH  032%=      5-min Rain = 0
KQU1 111807Z 00010G17KT 10/M07 A3029 RMK A01 T00951067  RH  031%=      5-min Rain = 0
KQU1 111808Z 02009G15KT 09/M07 A3029 RMK A01 T00941069  RH  031%=      5-min Rain = 0
KQU1 111809Z 00009G16KT 10/M07 A3029 RMK A01 T00951067  RH  031%=      5-min Rain = 0
KQU1 111810Z 01008G14KT 10/M07 A3029 RMK A01 T00961066  RH  031%=      5-min Rain = 0
KQU1 111811Z 00013G23KT 10/M07 A3029 RMK A01 T00971068  RH  031%=      5-min Rain = 0
KQU1 111812Z 36015G21KT 10/M07 A3029 RMK A01 T00971072  RH  030%=      5-min Rain = 0
KQU1 111813Z 00010G15KT 10/M07 A3029 RMK A01 T00961071  RH  030%=      5-min Rain = 0
KQU1 111814Z 35012G19KT 10/M07 A3029 RMK A01 T00971071  RH  030%=      5-min Rain = 0
KQU1 111815Z 01013G19KT 10/M07 A3029 RMK A01 T00971071  RH  030%=      5-min Rain = 0
KQU1 111816Z 02014G19KT 10/M07 A3029 RMK A01 T00971072  RH  030%=      5-min Rain = 0
KQU1 111817Z 01018G23KT 10/M07 A3029 RMK A01 T00971073  RH  030%=      5-min Rain = 0
KQU1 111818Z 35015KT 10/M07 A3029 RMK A01 T00971073  RH  030%=      5-min Rain = 0
KQU1 111819Z 34015G20KT 10/M07 A3029 RMK A01 T00971073  RH  029%=      5-min Rain = 0
KQU1 111820Z 34018G24KT 10/M08 A3029 RMK A01 T00981075  RH  029%=      5-min Rain = 0
KQU1 111821Z 35019G28KT 10/M08 A3029 RMK A01 T00971076  RH  029%=      5-min Rain = 0
KQU1 111822Z 35019KT 10/M08 A3029 RMK A01 T00971077  RH  028%=      5-min Rain = 0
KQU1 111823Z 35015KT 10/M08 A3029 RMK A01 T00971076  RH  029%=      5-min Rain = 0
KQU1 111824Z 34012KT 10/M08 A3029 RMK A01 T00971075  RH  029%=      5-min Rain = 0
KQU1 111825Z 34015G20KT 10/M08 A3029 RMK A01 T00971078  RH  028%=      5-min Rain = 0
KQU1 111826Z 34011KT 10/M08 A3029 RMK A01 T00981075  RH  029%=      5-min Rain = 0
KQU1 111827Z 36015KT 10/M08 A3029 RMK A01 T01001075  RH  029%=      5-min Rain = 0
KQU1 111828Z 35016G22KT 10/M08 A3029 RMK A01 T01001076  RH  028%=      5-min Rain = 0
KQU1 111829Z 36013G18KT 10/M08 A3029 RMK A01 T00991076  RH  028%=      5-min Rain = 0
KQU1 111830Z 36014G20KT 10/M08 A3029 RMK A01 T00991076  RH  028%=      5-min Rain = 0
KQU1 111831Z 36014KT 10/M08 A3028 RMK A01 T00991075  RH  029%=      5-min Rain = 0
KQU1 111832Z 35010G15KT 10/M07 A3028 RMK A01 T01021070  RH  029%=      5-min Rain = 0
KQU1 111833Z 35014G23KT 10/M07 A3028 RMK A01 T01031072  RH  029%=      5-min Rain = 0
KQU1 111834Z 34017KT 10/M08 A3028 RMK A01 T01031076  RH  028%=      5-min Rain = 0
KQU1 111835Z 36015G21KT 10/M08 A3028 RMK A01 T01031075  RH  028%=      5-min Rain = 0
KQU1 111836Z 34016G23KT 11/M08 A3028 RMK A01 T01051075  RH  027%=      5-min Rain = 0
KQU1 111837Z 34018G24KT 10/M08 A3028 RMK A01 T01041080  RH  027%=      5-min Rain = 0
KQU1 111838Z 01013G26KT 10/M08 A3028 RMK A01 T01031078  RH  027%=      5-min Rain = 0
KQU1 111839Z 02014G21KT 10/M08 A3028 RMK A01 T01031076  RH  028%=      5-min Rain = 0
KQU1 111840Z 01012G19KT 10/M07 A3028 RMK A01 T01031073  RH  028%=      5-min Rain = 0
KQU1 111841Z 35011G16KT 10/M08 A3028 RMK A01 T01041076  RH  027%=      5-min Rain = 0
KQU1 111842Z 35015G20KT 11/M08 A3028 RMK A01 T01061077  RH  027%=      5-min Rain = 0
KQU1 111843Z 34016G22KT 11/M08 A3028 RMK A01 T01051083  RH  026%=      5-min Rain = 0
KQU1 111844Z 35015G20KT 11/M08 A3028 RMK A01 T01051079  RH  027%=      5-min Rain = 0
KQU1 111845Z 01011G16KT 11/M08 A3028 RMK A01 T01061076  RH  027%=      5-min Rain = 0
KQU1 111846Z 36016G22KT 11/M08 A3028 RMK A01 T01081079  RH  026%=      5-min Rain = 0
KQU1 111847Z 36016G22KT 11/M08 A3028 RMK A01 T01091080  RH  026%=      5-min Rain = 0
KQU1 111848Z 36017G25KT 11/M08 A3028 RMK A01 T01091082  RH  025%=      5-min Rain = 0
KQU1 111849Z 35018KT 11/M08 A3028 RMK A01 T01091083  RH  025%=      5-min Rain = 0
KQU1 111850Z 02015G23KT 11/M08 A3027 RMK A01 T01071084  RH  025%=      5-min Rain = 0
KQU1 111851Z 35012G20KT 11/M08 A3027 RMK A01 T01071080  RH  026%=      5-min Rain = 0
KQU1 111852Z 35012G17KT 11/M08 A3028 RMK A01 T01081080  RH  026%=      5-min Rain = 0
KQU1 111853Z 01011KT 11/M08 A3027 RMK A01 T01091079  RH  026%=      5-min Rain = 0
KQU1 111854Z 01011G19KT 11/M08 A3027 RMK A01 T01101080  RH  026%=      5-min Rain = 0
KQU1 111855Z 01013G23KT 11/M08 A3027 RMK A01 T01091081  RH  026%=      5-min Rain = 0
KQU1 111856Z 01013G18KT 11/M08 A3027 RMK A01 T01081081  RH  026%=      5-min Rain = 0
KQU1 111857Z 01010G18KT 11/M08 A3027 RMK A01 T01091079  RH  026%=      5-min Rain = 0
KQU1 111858Z 00009G16KT 11/M08 A3027 RMK A01 T01091077  RH  026%=      5-min Rain = 0
KQU1 111859Z 36012G18KT 11/M08 A3027 RMK A01 T01101079  RH  026%=      5-min Rain = 0
KQU1 111900Z 02015G25KT 11/M08 A3027 RMK A01 T01101079  RH  026%=      5-min Rain = 0
KQU1 111901Z 01014G20KT 11/M08 A3027 RMK A01 T01101077  RH  026%=      5-min Rain = 0
KQU1 111902Z 36012G19KT 11/M08 A3027 RMK A01 T01101079  RH  026%=      5-min Rain = 0
KQU1 111903Z 35014G21KT 11/M08 A3027 RMK A01 T01111077  RH  026%=      5-min Rain = 0
KQU1 111904Z 36014KT 11/M08 A3027 RMK A01 T01131078  RH  025%=      5-min Rain = 0
KQU1 111905Z 35016KT 11/M08 A3027 RMK A01 T01131083  RH  024%=      5-min Rain = 0
KQU1 111906Z 34017G23KT 11/M09 A3027 RMK A01 T01131085  RH  024%=      5-min Rain = 0
KQU1 111907Z 34016KT 11/M09 A3027 RMK A01 T01131086  RH  024%=      5-min Rain = 0
KQU1 111908Z 36017G24KT 11/M08 A3027 RMK A01 T01131083  RH  025%=      5-min Rain = 0
KQU1 111909Z 35012G24KT 11/M08 A3027 RMK A01 T01131081  RH  025%=      5-min Rain = 0
KQU1 111910Z 36011G17KT 11/M08 A3027 RMK A01 T01141081  RH  025%=      5-min Rain = 0
KQU1 111911Z 35010KT 12/M08 A3027 RMK A01 T01151077  RH  025%=      5-min Rain = 0
KQU1 111912Z 36014KT 12/M08 A3027 RMK A01 T01161083  RH  024%=      5-min Rain = 0
KQU1 111913Z 01013G20KT 12/M08 A3027 RMK A01 T01151083  RH  024%=      5-min Rain = 0
KQU1 111914Z 01014KT 12/M08 A3027 RMK A01 T01151082  RH  024%=      5-min Rain = 0
KQU1 111915Z 01011G17KT 12/M08 A3026 RMK A01 T01151083  RH  024%=      5-min Rain = 0
KQU1 111916Z 34014G21KT 12/M08 A3026 RMK A01 T01151083  RH  024%=      5-min Rain = 0
KQU1 111917Z 34016G22KT 12/M09 A3026 RMK A01 T01161087  RH  023%=      5-min Rain = 0
KQU1 111918Z 34020G25KT 12/M09 A3026 RMK A01 T01151089  RH  023%=      5-min Rain = 0
KQU1 111919Z 35015G25KT 12/M09 A3026 RMK A01 T01151086  RH  024%=      5-min Rain = 0
KQU1 111920Z 34016G23KT 12/M09 A3027 RMK A01 T01151088  RH  023%=      5-min Rain = 0
KQU1 111921Z 35012KT 12/M08 A3027 RMK A01 T01151083  RH  024%=      5-min Rain = 0
KQU1 111922Z 35016G24KT 12/M08 A3027 RMK A01 T01171080  RH  024%=      5-min Rain = 0
KQU1 111923Z 35016G22KT 12/M09 A3027 RMK A01 T01171087  RH  023%=      5-min Rain = 0
KQU1 111924Z 35015G22KT 12/M08 A3027 RMK A01 T01181084  RH  024%=      5-min Rain = 0
KQU1 111925Z 34017G22KT 12/M09 A3026 RMK A01 T01171087  RH  023%=      5-min Rain = 0
KQU1 111926Z 34014G19KT 12/M09 A3026 RMK A01 T01171086  RH  023%=      5-min Rain = 0
KQU1 111927Z 34013G18KT 12/M09 A3026 RMK A01 T01171085  RH  023%=      5-min Rain = 0
KQU1 111928Z 34016G22KT 12/M09 A3026 RMK A01 T01181087  RH  023%=      5-min Rain = 0
KQU1 111929Z 35012G20KT 12/M08 A3026 RMK A01 T01181084  RH  023%=      5-min Rain = 0
KQU1 111930Z 35010G16KT 12/M08 A3026 RMK A01 T01201083  RH  023%=      5-min Rain = 0
KQU1 111931Z 35015G20KT 12/M09 A3026 RMK A01 T01201087  RH  023%=      5-min Rain = 0
KQU1 111932Z 35012KT 12/M09 A3026 RMK A01 T01191090  RH  022%=      5-min Rain = 0
KQU1 111933Z 35014KT 12/M09 A3026 RMK A01 T01171086  RH  023%=      5-min Rain = 0
KQU1 111934Z 34013KT 12/M09 A3026 RMK A01 T01161088  RH  023%=      5-min Rain = 0
KQU1 111935Z 34012KT 12/M09 A3026 RMK A01 T01161089  RH  023%=      5-min Rain = 0
KQU1 111936Z 34009G14KT 12/M09 A3026 RMK A01 T01161088  RH  023%=      5-min Rain = 0
KQU1 111937Z 36013G21KT 12/M09 A3026 RMK A01 T01171085  RH  023%=      5-min Rain = 0
KQU1 111938Z 36012G20KT 12/M08 A3026 RMK A01 T01191083  RH  023%=      5-min Rain = 0
KQU1 111939Z 36008G16KT 12/M09 A3026 RMK A01 T01201086  RH  023%=      5-min Rain = 0
KQU1 111940Z 36012KT 12/M09 A3026 RMK A01 T01201088  RH  022%=      5-min Rain = 0
KQU1 111941Z 01009G14KT 12/M09 A3026 RMK A01 T01201086  RH  023%=      5-min Rain = 0
KQU1 111942Z 02014KT 12/M09 A3026 RMK A01 T01191088  RH  023%=      5-min Rain = 0
KQU1 111943Z 00012G17KT 12/M09 A3026 RMK A01 T01191085  RH  023%=      5-min Rain = 0
KQU1 111944Z 36008G14KT 12/M09 A3026 RMK A01 T01201088  RH  022%=      5-min Rain = 0
KQU1 111945Z 35012G17KT 12/M09 A3026 RMK A01 T01211087  RH  022%=      5-min Rain = 0
KQU1 111946Z 35013KT 12/M09 A3026 RMK A01 T01221091  RH  022%=      5-min Rain = 0
KQU1 111947Z 36013KT 12/M09 A3026 RMK A01 T01241087  RH  022%=      5-min Rain = 0
KQU1 111948Z 00010G17KT 13/M09 A3026 RMK A01 T01261088  RH  022%=      5-min Rain = 0
KQU1 111949Z 35017KT 13/M09 A3026 RMK A01 T01271092  RH  021%=      5-min Rain = 0
KQU1 111950Z 01016G23KT 13/M09 A3026 RMK A01 T01271094  RH  021%=      5-min Rain = 0
KQU1 111951Z 35016G21KT 13/M09 A3026 RMK A01 T01281093  RH  021%=      5-min Rain = 0
KQU1 111952Z 35015G24KT 13/M10 A3026 RMK A01 T01271099  RH  020%=      5-min Rain = 0
KQU1 111953Z 00013G22KT 13/M10 A3026 RMK A01 T01271098  RH  020%=      5-min Rain = 0
KQU1 111954Z 02014G20KT 13/M10 A3026 RMK A01 T01281095  RH  020%=      5-min Rain = 0
KQU1 111955Z 01014G20KT 13/M10 A3026 RMK A01 T01271097  RH  020%=      5-min Rain = 0
KQU1 111956Z 01013G20KT 13/M10 A3026 RMK A01 T01251099  RH  020%=      5-min Rain = 0
KQU1 111957Z 00011G16KT 12/M10 A3026 RMK A01 T01231098  RH  020%=      5-min Rain = 0
KQU1 111958Z 00011G20KT 12/M10 A3026 RMK A01 T01241095  RH  021%=      5-min Rain = 0
KQU1 111959Z 02014G23KT 12/M10 A3026 RMK A01 T01241100  RH  020%=      5-min Rain = 0
KQU1 112000Z 01017G25KT 13/M10 A3026 RMK A01 T01261098  RH  020%=      5-min Rain = 0
KQU1 112001Z 02012G18KT 13/M10 A3026 RMK A01 T01261097  RH  020%=      5-min Rain = 0
KQU1 112002Z 01011G17KT 13/M10 A3026 RMK A01 T01261096  RH  020%=      5-min Rain = 0
KQU1 112003Z 01013G23KT 13/M10 A3026 RMK A01 T01271095  RH  020%=      5-min Rain = 0
KQU1 112004Z 01012G19KT 13/M10 A3026 RMK A01 T01261099  RH  020%=      5-min Rain = 0
KQU1 112005Z 35016G21KT 13/M10 A3026 RMK A01 T01261098  RH  020%=      5-min Rain = 0
KQU1 112006Z 35019KT 12/M11 A3026 RMK A01 T01241106  RH  019%=      5-min Rain = 0
KQU1 112007Z 36013G18KT 12/M10 A3026 RMK A01 T01241100  RH  020%=      5-min Rain = 0
KQU1 112008Z 34015G22KT 13/M10 A3026 RMK A01 T01261104  RH  019%=      5-min Rain = 0
KQU1 112009Z 35017KT 13/M11 A3026 RMK A01 T01261108  RH  018%=      5-min Rain = 0
KQU1 112010Z 34017G22KT 13/M11 A3026 RMK A01 T01261105  RH  019%=      5-min Rain = 0
KQU1 112011Z 34014KT 13/M11 A3026 RMK A01 T01251105  RH  019%=      5-min Rain = 0
KQU1 112012Z 35016KT 12/M11 A3026 RMK A01 T01241108  RH  019%=      5-min Rain = 0
KQU1 112013Z 34017KT 12/M11 A3026 RMK A01 T01231110  RH  019%=      5-min Rain = 0
KQU1 112014Z 34017KT 12/M11 A3026 RMK A01 T01231110  RH  019%=      5-min Rain = 0
KQU1 112015Z 35015G23KT 12/M10 A3026 RMK A01 T01231104  RH  019%=      5-min Rain = 0
KQU1 112016Z 34016KT 12/M11 A3026 RMK A01 T01231107  RH  019%=      5-min Rain = 0
KQU1 112017Z 36014KT 12/M11 A3026 RMK A01 T01221106  RH  019%=      5-min Rain = 0
KQU1 112018Z 01010G16KT 12/M10 A3026 RMK A01 T01231102  RH  020%=      5-min Rain = 0
KQU1 112019Z 00010KT 12/M10 A3026 RMK A01 T01231102  RH  020%=      5-min Rain = 0
KQU1 112020Z 35011KT 12/M10 A3026 RMK A01 T01231102  RH  020%=      5-min Rain = 0
KQU1 112021Z 34015G21KT 12/M10 A3026 RMK A01 T01241102  RH  020%=      5-min Rain = 0
KQU1 112022Z 34015KT 12/M11 A3026 RMK A01 T01231113  RH  018%=      5-min Rain = 0
KQU1 112023Z 34016G21KT 12/M11 A3026 RMK A01 T01221111  RH  018%=      5-min Rain = 0
KQU1 112024Z 33016G21KT 12/M11 A3026 RMK A01 T01231111  RH  018%=      5-min Rain = 0
KQU1 112025Z 34017KT 12/M11 A3026 RMK A01 T01231111  RH  018%=      5-min Rain = 0
KQU1 112026Z 33019KT 12/M11 A3026 RMK A01 T01221113  RH  018%=      5-min Rain = 0
KQU1 112027Z 34011G19KT 12/M11 A3026 RMK A01 T01231110  RH  019%=      5-min Rain = 0
KQU1 112028Z 34011KT 12/M11 A3026 RMK A01 T01241111  RH  018%=      5-min Rain = 0
KQU1 112029Z 35013G18KT 12/M11 A3026 RMK A01 T01241112  RH  018%=      5-min Rain = 0
KQU1 112030Z 34012KT 13/M11 A3026 RMK A01 T01251110  RH  018%=      5-min Rain = 0
KQU1 112031Z 34012KT 13/M11 A3026 RMK A01 T01251111  RH  018%=      5-min Rain = 0
KQU1 112032Z 33012G19KT 13/M11 A3026 RMK A01 T01261111  RH  018%=      5-min Rain = 0
KQU1 112033Z 33011KT 13/M11 A3026 RMK A01 T01271111  RH  018%=      5-min Rain = 0
KQU1 112034Z 34010KT 13/M11 A3026 RMK A01 T01271113  RH  018%=      5-min Rain = 0
KQU1 112035Z 32011G18KT 13/M11 A3026 RMK A01 T01281114  RH  017%=      5-min Rain = 0
KQU1 112036Z 34016G21KT 13/M12 A3026 RMK A01 T01281115  RH  017%=      5-min Rain = 0
KQU1 112037Z 36015G22KT 13/M11 A3026 RMK A01 T01271113  RH  018%=      5-min Rain = 0
KQU1 112038Z 35015KT 13/M11 A3026 RMK A01 T01271114  RH  017%=      5-min Rain = 0
KQU1 112039Z 35014G19KT 13/M12 A3026 RMK A01 T01271115  RH  017%=      5-min Rain = 0
KQU1 112040Z 34014KT 13/M12 A3025 RMK A01 T01271118  RH  017%=      5-min Rain = 0
KQU1 112041Z 35011KT 13/M11 A3026 RMK A01 T01271113  RH  018%=      5-min Rain = 0
KQU1 112042Z 35010KT 13/M11 A3025 RMK A01 T01301107  RH  018%=      5-min Rain = 0
KQU1 112043Z 35011G17KT 13/M10 A3025 RMK A01 T01341104  RH  018%=      5-min Rain = 0
KQU1 112044Z 00013G18KT 14/M11 A3025 RMK A01 T01351114  RH  017%=      5-min Rain = 0
KQU1 112045Z 36011G18KT 14/M11 A3025 RMK A01 T01351110  RH  017%=      5-min Rain = 0
KQU1 112046Z 36010KT 14/M11 A3025 RMK A01 T01361108  RH  017%=      5-min Rain = 0
KQU1 112047Z 00011G17KT 14/M11 A3025 RMK A01 T01361110  RH  017%=      5-min Rain = 0
KQU1 112048Z 36013G19KT 14/M11 A3025 RMK A01 T01361113  RH  017%=      5-min Rain = 0
KQU1 112049Z 35011G17KT 14/M11 A3025 RMK A01 T01361108  RH  017%=      5-min Rain = 0
KQU1 112050Z 34011G16KT 14/M11 A3025 RMK A01 T01371109  RH  017%=      5-min Rain = 0
KQU1 112051Z 35010KT 14/M12 A3025 RMK A01 T01361115  RH  016%=      5-min Rain = 0
KQU1 112052Z 35013G19KT 14/M11 A3025 RMK A01 T01371109  RH  017%=      5-min Rain = 0
KQU1 112053Z 33016KT 14/M12 A3025 RMK A01 T01351119  RH  016%=      5-min Rain = 0
KQU1 112054Z 36013G19KT 14/M12 A3025 RMK A01 T01351115  RH  016%=      5-min Rain = 0
KQU1 112055Z 34018KT 14/M11 A3025 RMK A01 T01351111  RH  017%=      5-min Rain = 0
KQU1 112056Z 34015G21KT 13/M11 A3025 RMK A01 T01331113  RH  017%=      5-min Rain = 0
KQU1 112057Z 01015G20KT 13/M11 A3025 RMK A01 T01321114  RH  017%=      5-min Rain = 0
KQU1 112058Z 34013KT 13/M11 A3025 RMK A01 T01331111  RH  017%=      5-min Rain = 0
KQU1 112059Z 35013KT 13/M12 A3025 RMK A01 T01331119  RH  016%=      5-min Rain = 0
KQU1 112100Z 34013KT 13/M12 A3025 RMK A01 T01331119  RH  016%=      5-min Rain = 0
KQU1 112101Z 35014G19KT 13/M12 A3025 RMK A01 T01331119  RH  016%=      5-min Rain = 0
KQU1 112102Z 34015KT 13/M12 A3025 RMK A01 T01331123  RH  016%=      5-min Rain = 0
KQU1 112103Z 33017KT 13/M13 A3025 RMK A01 T01311130  RH  015%=      5-min Rain = 0
KQU1 112104Z 33015KT 13/M13 A3025 RMK A01 T01311130  RH  015%=      5-min Rain = 0
KQU1 112105Z 33012G17KT 13/M13 A3025 RMK A01 T01311132  RH  015%=      5-min Rain = 0
KQU1 112106Z 34015G20KT 13/M13 A3025 RMK A01 T01311134  RH  014%=      5-min Rain = 0
KQU1 112107Z 34015KT 13/M13 A3025 RMK A01 T01311130  RH  015%=      5-min Rain = 0
KQU1 112108Z 34014G20KT 13/M13 A3025 RMK A01 T01321130  RH  015%=      5-min Rain = 0
KQU1 112109Z 34015KT 13/M14 A3025 RMK A01 T01311135  RH  014%=      5-min Rain = 0
KQU1 112110Z 34011KT 13/M13 A3025 RMK A01 T01311133  RH  015%=      5-min Rain = 0
KQU1 112111Z 34015G22KT 13/M14 A3025 RMK A01 T01321138  RH  014%=      5-min Rain = 0
KQU1 112112Z 00011KT 13/M13 A3025 RMK A01 T01331129  RH  015%=      5-min Rain = 0
KQU1 112113Z 00013G19KT 14/M13 A3025 RMK A01 T01361126  RH  015%=      5-min Rain = 0
KQU1 112114Z 34016G23KT 14/M14 A3025 RMK A01 T01361135  RH  014%=      5-min Rain = 0
KQU1 112115Z 34015KT 13/M14 A3025 RMK A01 T01341136  RH  014%=      5-min Rain = 0
KQU1 112116Z 34016KT 13/M14 A3025 RMK A01 T01331141  RH  014%=      5-min Rain = 0
KQU1 112117Z 34015G21KT 13/M14 A3025 RMK A01 T01311144  RH  013%=      5-min Rain = 0
KQU1 112118Z 33016G21KT 13/M15 A3025 RMK A01 T01311145  RH  013%=      5-min Rain = 0
KQU1 112119Z 34015KT 13/M15 A3025 RMK A01 T01331146  RH  013%=      5-min Rain = 0
KQU1 112120Z 34016KT 13/M15 A3025 RMK A01 T01321146  RH  013%=      5-min Rain = 0
KQU1 112121Z 34014KT 13/M15 A3025 RMK A01 T01311146  RH  013%=      5-min Rain = 0
KQU1 112122Z 34012KT 13/M14 A3025 RMK A01 T01301144  RH  013%=      5-min Rain = 0
KQU1 112123Z 34010KT 13/M14 A3025 RMK A01 T01311143  RH  014%=      5-min Rain = 0
KQU1 112124Z 34011KT 13/M14 A3025 RMK A01 T01321140  RH  014%=      5-min Rain = 0
KQU1 112125Z 34010KT 13/M14 A3025 RMK A01 T01341137  RH  014%=      5-min Rain = 0
KQU1 112126Z 34009G14KT 13/M14 A3025 RMK A01 T01341136  RH  014%=      5-min Rain = 0
KQU1 112127Z 35011KT 13/M14 A3025 RMK A01 T01341136  RH  014%=      5-min Rain = 0
KQU1 112128Z 33008KT 14/M14 A3025 RMK A01 T01361136  RH  014%=      5-min Rain = 0
KQU1 112129Z 34014KT 14/M14 A3025 RMK A01 T01371140  RH  013%=      5-min Rain = 0
KQU1 112130Z 34014G20KT 14/M14 A3025 RMK A01 T01361136  RH  014%=      5-min Rain = 0
KQU1 112131Z 35014G21KT 14/M14 A3025 RMK A01 T01351136  RH  014%=      5-min Rain = 0
KQU1 112132Z 35010G16KT 13/M13 A3025 RMK A01 T01341134  RH  014%=      5-min Rain = 0
KQU1 112133Z 02009G18KT 14/M13 A3025 RMK A01 T01351133  RH  014%=      5-min Rain = 0
KQU1 112134Z 02012G19KT 14/M14 A3025 RMK A01 T01351136  RH  014%=      5-min Rain = 0
KQU1 112135Z 03011KT 13/M14 A3025 RMK A01 T01341136  RH  014%=      5-min Rain = 0
KQU1 112136Z 02010KT 13/M14 A3024 RMK A01 T01321142  RH  013%=      5-min Rain = 0
KQU1 112137Z 01006KT 13/M14 A3024 RMK A01 T01311137  RH  014%=      5-min Rain = 0
KQU1 112138Z 01009G15KT 13/M13 A3024 RMK A01 T01331134  RH  014%=      5-min Rain = 0
KQU1 112139Z 00011G17KT 14/M14 A3024 RMK A01 T01351138  RH  014%=      5-min Rain = 0
KQU1 112140Z 02009G15KT 14/M13 A3024 RMK A01 T01361134  RH  014%=      5-min Rain = 0
KQU1 112141Z 02011G18KT 14/M14 A3024 RMK A01 T01351135  RH  014%=      5-min Rain = 0
KQU1 112142Z 35007KT 14/M13 A3025 RMK A01 T01351131  RH  014%=      5-min Rain = 0
KQU1 112143Z 35009KT 14/M14 A3024 RMK A01 T01361139  RH  013%=      5-min Rain = 0
KQU1 112144Z 36009KT 14/M13 A3024 RMK A01 T01371134  RH  014%=      5-min Rain = 0
KQU1 112145Z 36016G21KT 14/M15 A3024 RMK A01 T01371147  RH  013%=      5-min Rain = 0
KQU1 112146Z 00011G18KT 14/M15 A3024 RMK A01 T01351152  RH  012%=      5-min Rain = 0
KQU1 112147Z 01014G20KT 14/M15 A3024 RMK A01 T01351149  RH  012%=      5-min Rain = 0
KQU1 112148Z 01009KT 13/M15 A3024 RMK A01 T01341147  RH  013%=      5-min Rain = 0
KQU1 112149Z 01014G20KT 13/M15 A3024 RMK A01 T01341150  RH  012%=      5-min Rain = 0
KQU1 112150Z 35013G20KT 13/M16 A3024 RMK A01 T01341157  RH  012%=      5-min Rain = 0
KQU1 112151Z 34014KT 13/M15 A3024 RMK A01 T01321153  RH  012%=      5-min Rain = 0
KQU1 112152Z 35017G22KT 13/M15 A3024 RMK A01 T01321150  RH  013%=      5-min Rain = 0
KQU1 112153Z 36014KT 13/M15 A3025 RMK A01 T01321146  RH  013%=      5-min Rain = 0
KQU1 112154Z 35012KT 13/M15 A3025 RMK A01 T01331148  RH  013%=      5-min Rain = 0
KQU1 112155Z 35010KT 13/M15 A3025 RMK A01 T01331146  RH  013%=      5-min Rain = 0
KQU1 112156Z 33012G17KT 13/M15 A3025 RMK A01 T01331148  RH  013%=      5-min Rain = 0
KQU1 112157Z 34016G22KT 13/M15 A3025 RMK A01 T01321154  RH  012%=      5-min Rain = 0
KQU1 112158Z 35010G19KT 13/M15 A3025 RMK A01 T01311149  RH  013%=      5-min Rain = 0
KQU1 112159Z 35010KT 13/M15 A3025 RMK A01 T01311148  RH  013%=      5-min Rain = 0
KQU1 112200Z 36010G15KT 13/M15 A3025 RMK A01 T01311148  RH  013%=      5-min Rain = 0
KQU1 112201Z 00007G12KT 13/M15 A3025 RMK A01 T01311147  RH  013%=      5-min Rain = 0
KQU1 112202Z 35010G15KT 13/M15 A3025 RMK A01 T01321150  RH  013%=      5-min Rain = 0
KQU1 112203Z 01008G13KT 13/M15 A3025 RMK A01 T01321149  RH  013%=      5-min Rain = 0
KQU1 112204Z 00011G16KT 13/M15 A3025 RMK A01 T01321153  RH  012%=      5-min Rain = 0
KQU1 112205Z 35010KT 13/M15 A3025 RMK A01 T01321146  RH  013%=      5-min Rain = 0
KQU1 112206Z 35009G15KT 13/M15 A3025 RMK A01 T01331146  RH  013%=      5-min Rain = 0
KQU1 112207Z 35009KT 13/M15 A3025 RMK A01 T01341147  RH  013%=      5-min Rain = 0
KQU1 112208Z 35011KT 13/M16 A3025 RMK A01 T01331160  RH  012%=      5-min Rain = 0
KQU1 112209Z 35009KT 13/M16 A3025 RMK A01 T01321158  RH  012%=      5-min Rain = 0
KQU1 112210Z 35008KT 13/M15 A3025 RMK A01 T01311151  RH  013%=      5-min Rain = 0
KQU1 112211Z 36009G15KT 13/M15 A3025 RMK A01 T01311148  RH  013%=      5-min Rain = 0
KQU1 112212Z 01009G14KT 13/M15 A3025 RMK A01 T01301150  RH  013%=      5-min Rain = 0
KQU1 112213Z 35009G14KT 13/M15 A3025 RMK A01 T01291147  RH  013%=      5-min Rain = 0
KQU1 112214Z 01009G14KT 13/M15 A3025 RMK A01 T01291147  RH  013%=      5-min Rain = 0
KQU1 112215Z 00011G16KT 13/M15 A3025 RMK A01 T01291150  RH  013%=      5-min Rain = 0
KQU1 112216Z 00013KT 13/M15 A3025 RMK A01 T01291151  RH  013%=      5-min Rain = 0
KQU1 112217Z 00009G14KT 13/M15 A3025 RMK A01 T01281150  RH  013%=      5-min Rain = 0
KQU1 112218Z 01007G14KT 13/M15 A3025 RMK A01 T01281153  RH  013%=      5-min Rain = 0
KQU1 112219Z 00007G12KT 13/M15 A3025 RMK A01 T01291149  RH  013%=      5-min Rain = 0
KQU1 112220Z 00008KT 13/M15 A3025 RMK A01 T01301149  RH  013%=      5-min Rain = 0
KQU1 112221Z 02008KT 13/M15 A3024 RMK A01 T01311149  RH  013%=      5-min Rain = 0
KQU1 112222Z 03007KT 13/M14 A3024 RMK A01 T01321143  RH  013%=      5-min Rain = 0
KQU1 112223Z 02007KT 13/M14 A3025 RMK A01 T01331142  RH  013%=      5-min Rain = 0
KQU1 112224Z 02008KT 13/M14 A3025 RMK A01 T01341142  RH  013%=      5-min Rain = 0
KQU1 112225Z 36010KT 13/M15 A3025 RMK A01 T01331150  RH  013%=      5-min Rain = 0
KQU1 112226Z 02009G14KT 13/M15 A3025 RMK A01 T01331145  RH  013%=      5-min Rain = 0
KQU1 112227Z 01010KT 13/M15 A3025 RMK A01 T01321146  RH  013%=      5-min Rain = 0
KQU1 112228Z 01007KT 13/M15 A3025 RMK A01 T01321146  RH  013%=      5-min Rain = 0
KQU1 112229Z 02009KT 13/M15 A3025 RMK A01 T01321145  RH  013%=      5-min Rain = 0
KQU1 112230Z 01010G17KT 13/M14 A3025 RMK A01 T01321144  RH  013%=      5-min Rain = 0
KQU1 112231Z 00008G14KT 13/M15 A3025 RMK A01 T01321149  RH  013%=      5-min Rain = 0
KQU1 112232Z 00011G16KT 13/M15 A3025 RMK A01 T01321149  RH  013%=      5-min Rain = 0
KQU1 112233Z 00010G15KT 13/M15 A3025 RMK A01 T01311150  RH  013%=      5-min Rain = 0
KQU1 112234Z 36007G12KT 13/M15 A3025 RMK A01 T01311148  RH  013%=      5-min Rain = 0
KQU1 112235Z 02007KT 13/M15 A3025 RMK A01 T01331146  RH  013%=      5-min Rain = 0
KQU1 112236Z 01005KT 13/M14 A3025 RMK A01 T01341141  RH  013%=      5-min Rain = 0
KQU1 112237Z 01008KT 14/M15 A3025 RMK A01 T01351150  RH  012%=      5-min Rain = 0
KQU1 112238Z 02007G13KT 13/M15 A3025 RMK A01 T01341148  RH  013%=      5-min Rain = 0
KQU1 112239Z 02012KT 13/M15 A3025 RMK A01 T01341151  RH  012%=      5-min Rain = 0
KQU1 112240Z 00012KT 13/M16 A3025 RMK A01 T01321156  RH  012%=      5-min Rain = 0
KQU1 112241Z 01007G13KT 13/M15 A3025 RMK A01 T01321152  RH  012%=      5-min Rain = 0
KQU1 112242Z 02010G15KT 13/M15 A3025 RMK A01 T01321153  RH  012%=      5-min Rain = 0
KQU1 112243Z 02009KT 13/M15 A3025 RMK A01 T01321153  RH  012%=      5-min Rain = 0
KQU1 112244Z 01008KT 13/M16 A3025 RMK A01 T01321155  RH  012%=      5-min Rain = 0
KQU1 112245Z 35006G11KT 13/M15 A3025 RMK A01 T01331154  RH  012%=      5-min Rain = 0
KQU1 112246Z 00009G14KT 13/M15 A3025 RMK A01 T01341150  RH  012%=      5-min Rain = 0
KQU1 112247Z 35013KT 13/M16 A3025 RMK A01 T01341155  RH  012%=      5-min Rain = 0
KQU1 112248Z 34013KT 13/M15 A3025 RMK A01 T01331153  RH  012%=      5-min Rain = 0
KQU1 112249Z 34011KT 13/M16 A3025 RMK A01 T01321159  RH  012%=      5-min Rain = 0
KQU1 112250Z 34012KT 13/M16 A3025 RMK A01 T01311156  RH  012%=      5-min Rain = 0
KQU1 112251Z 35010KT 13/M16 A3025 RMK A01 T01311156  RH  012%=      5-min Rain = 0
KQU1 112252Z 01009KT 13/M15 A3025 RMK A01 T01321153  RH  012%=      5-min Rain = 0
KQU1 112253Z 02006KT 13/M15 A3025 RMK A01 T01321147  RH  013%=      5-min Rain = 0
KQU1 112254Z 00006KT 13/M14 A3025 RMK A01 T01331144  RH  013%=      5-min Rain = 0
KQU1 112255Z 35010G17KT 13/M15 A3025 RMK A01 T01341148  RH  013%=      5-min Rain = 0
KQU1 112256Z 00009G15KT 13/M15 A3025 RMK A01 T01331148  RH  013%=      5-min Rain = 0
KQU1 112257Z 00004G10KT 13/M14 A3025 RMK A01 T01341143  RH  013%=      5-min Rain = 0
KQU1 112258Z 36010KT 14/M15 A3025 RMK A01 T01351147  RH  013%=      5-min Rain = 0
KQU1 112259Z 35009KT 13/M15 A3025 RMK A01 T01341146  RH  013%=      5-min Rain = 0
KQU1 112300Z 35011KT 13/M15 A3025 RMK A01 T01341148  RH  013%=      5-min Rain = 0
KQU1 112301Z 35009KT 13/M15 A3025 RMK A01 T01341146  RH  013%=      5-min Rain = 0
KQU1 112302Z 36010KT 14/M15 A3025 RMK A01 T01351147  RH  013%=      5-min Rain = 0
KQU1 112303Z 01007KT 13/M15 A3025 RMK A01 T01341148  RH  013%=      5-min Rain = 0
KQU1 112304Z 00012KT 13/M15 A3025 RMK A01 T01331149  RH  013%=      5-min Rain = 0
KQU1 112305Z 01008G17KT 13/M15 A3025 RMK A01 T01321149  RH  013%=      5-min Rain = 0
KQU1 112306Z 01011G16KT 13/M15 A3026 RMK A01 T01311152  RH  013%=      5-min Rain = 0
KQU1 112307Z 01011KT 13/M15 A3026 RMK A01 T01311151  RH  013%=      5-min Rain = 0
KQU1 112308Z 35010G15KT 13/M15 A3026 RMK A01 T01301150  RH  013%=      5-min Rain = 0
KQU1 112309Z 35012G17KT 13/M15 A3026 RMK A01 T01291153  RH  013%=      5-min Rain = 0
KQU1 112310Z 35008G14KT 13/M15 A3026 RMK A01 T01291151  RH  013%=      5-min Rain = 0
KQU1 112311Z 02007KT 13/M14 A3026 RMK A01 T01301142  RH  014%=      5-min Rain = 0
KQU1 112312Z 01004KT 13/M14 A3026 RMK A01 T01301137  RH  014%=      5-min Rain = 0
KQU1 112313Z 02007KT 13/M15 A3026 RMK A01 T01311146  RH  013%=      5-min Rain = 0
KQU1 112314Z 01006KT 13/M15 A3026 RMK A01 T01311148  RH  013%=      5-min Rain = 0
KQU1 112315Z 36010KT 13/M15 A3026 RMK A01 T01311152  RH  012%=      5-min Rain = 0
KQU1 112316Z 01007KT 13/M15 A3026 RMK A01 T01311152  RH  012%=      5-min Rain = 0
KQU1 112317Z 00009KT 13/M15 A3026 RMK A01 T01311150  RH  013%=      5-min Rain = 0
KQU1 112318Z 01009G15KT 13/M15 A3026 RMK A01 T01311151  RH  013%=      5-min Rain = 0
KQU1 112319Z 02006KT 13/M15 A3026 RMK A01 T01311146  RH  013%=      5-min Rain = 0
KQU1 112320Z 01009KT 13/M15 A3026 RMK A01 T01311150  RH  013%=      5-min Rain = 0
KQU1 112321Z 35009G15KT 13/M15 A3026 RMK A01 T01301152  RH  013%=      5-min Rain = 0
KQU1 112322Z 35012KT 13/M15 A3026 RMK A01 T01301153  RH  012%=      5-min Rain = 0
KQU1 112323Z 34008KT 13/M15 A3026 RMK A01 T01291151  RH  013%=      5-min Rain = 0
KQU1 112324Z 35008KT 13/M15 A3026 RMK A01 T01281152  RH  013%=      5-min Rain = 0
KQU1 112325Z 36006KT 13/M15 A3026 RMK A01 T01281146  RH  013%=      5-min Rain = 0
KQU1 112326Z 35005KT 13/M15 A3026 RMK A01 T01281146  RH  013%=      5-min Rain = 0
KQU1 112327Z 35007KT 13/M15 A3026 RMK A01 T01271148  RH  013%=      5-min Rain = 0
KQU1 112328Z 35007G12KT 13/M15 A3026 RMK A01 T01271147  RH  013%=      5-min Rain = 0
KQU1 112329Z 36010KT 13/M15 A3026 RMK A01 T01261152  RH  013%=      5-min Rain = 0
KQU1 112330Z 35008KT 13/M15 A3026 RMK A01 T01261154  RH  013%=      5-min Rain = 0
KQU1 112331Z 36006KT 13/M15 A3026 RMK A01 T01251152  RH  013%=      5-min Rain = 0
KQU1 112332Z 36006KT 13/M15 A3026 RMK A01 T01251149  RH  013%=      5-min Rain = 0
KQU1 112333Z 01005G10KT 13/M15 A3026 RMK A01 T01251145  RH  014%=      5-min Rain = 0
KQU1 112334Z 00004G9KT 13/M15 A3026 RMK A01 T01251148  RH  014%=      5-min Rain = 0
KQU1 112335Z 35006G13KT 12/M15 A3026 RMK A01 T01241150  RH  013%=      5-min Rain = 0
KQU1 112336Z 01005G10KT 12/M15 A3026 RMK A01 T01241150  RH  013%=      5-min Rain = 0
KQU1 112337Z 02008KT 12/M15 A3026 RMK A01 T01241145  RH  014%=      5-min Rain = 0
KQU1 112338Z 02010KT 12/M15 A3026 RMK A01 T01241149  RH  013%=      5-min Rain = 0
KQU1 112339Z 36006KT 12/M15 A3026 RMK A01 T01241148  RH  014%=      5-min Rain = 0
KQU1 112340Z 36007KT 12/M15 A3026 RMK A01 T01231149  RH  013%=      5-min Rain = 0
KQU1 112341Z 00008KT 12/M15 A3026 RMK A01 T01231152  RH  013%=      5-min Rain = 0
KQU1 112342Z 36008KT 12/M15 A3027 RMK A01 T01231151  RH  013%=      5-min Rain = 0
KQU1 112343Z 35006KT 12/M15 A3027 RMK A01 T01231151  RH  013%=      5-min Rain = 0
KQU1 112344Z 35005KT 12/M15 A3027 RMK A01 T01231151  RH  013%=      5-min Rain = 0
KQU1 112345Z 02005KT 12/M15 A3027 RMK A01 T01231149  RH  013%=      5-min Rain = 0
KQU1 112346Z 01005G10KT 12/M15 A3027 RMK A01 T01221147  RH  014%=      5-min Rain = 0
KQU1 112347Z 36006G11KT 12/M15 A3027 RMK A01 T01221153  RH  013%=      5-min Rain = 0
KQU1 112348Z 00007KT 12/M15 A3027 RMK A01 T01221154  RH  013%=      5-min Rain = 0
KQU1 112349Z 35008KT 12/M15 A3027 RMK A01 T01221154  RH  013%=      5-min Rain = 0
KQU1 112350Z 35007KT 12/M15 A3027 RMK A01 T01221153  RH  013%=      5-min Rain = 0
KQU1 112351Z 00005KT 12/M15 A3027 RMK A01 T01221151  RH  013%=      5-min Rain = 0
KQU1 112352Z 36005KT 12/M15 A3027 RMK A01 T01221150  RH  014%=      5-min Rain = 0
KQU1 112353Z 36006KT 12/M15 A3027 RMK A01 T01211154  RH  013%=      5-min Rain = 0
KQU1 112354Z 00007KT 12/M16 A3027 RMK A01 T01211155  RH  013%=      5-min Rain = 0
KQU1 112355Z 00006KT 12/M15 A3027 RMK A01 T01211154  RH  013%=      5-min Rain = 0
KQU1 112356Z 00005KT 12/M15 A3027 RMK A01 T01221153  RH  013%=      5-min Rain = 0
KQU1 112357Z 01004KT 12/M15 A3027 RMK A01 T01211152  RH  013%=      5-min Rain = 0
KQU1 112358Z 01006KT 12/M15 A3027 RMK A01 T01211152  RH  013%=      5-min Rain = 0
KQU1 112359Z 00010KT 12/M16 A3027 RMK A01 T01211158  RH  013%=      5-min Rain = 0
KQU1 120000Z 00005KT 12/M16 A3027 RMK A01 T01211155  RH  013%=      5-min Rain = 0
KQU1 120001Z 01004KT 12/M16 A3027 RMK A01 T01211155  RH  013%=      5-min Rain = 0
KQU1 120002Z 00004KT 12/M15 A3027 RMK A01 T01201154  RH  013%=      5-min Rain = 0
KQU1 120003Z 01004KT 12/M15 A3027 RMK A01 T01201151  RH  014%=      5-min Rain = 0
KQU1 120004Z 00007KT 12/M16 A3027 RMK A01 T01201155  RH  013%=      5-min Rain = 0
KQU1 120005Z 00004KT 12/M15 A3028 RMK A01 T01201154  RH  013%=      5-min Rain = 0
KQU1 120006Z 01004KT 12/M15 A3028 RMK A01 T01201149  RH  014%=      5-min Rain = 0
KQU1 120007Z 01003KT 12/M15 A3028 RMK A01 T01201148  RH  014%=      5-min Rain = 0
KQU1 120008Z 02003KT 12/M15 A3028 RMK A01 T01201149  RH  014%=      5-min Rain = 0
KQU1 120009Z 01004KT 12/M15 A3028 RMK A01 T01211150  RH  014%=      5-min Rain = 0
KQU1 120010Z 36003KT 12/M15 A3028 RMK A01 T01211148  RH  014%=      5-min Rain = 0
KQU1 120011Z 36003KT 12/M15 A3028 RMK A01 T01211150  RH  014%=      5-min Rain = 0
KQU1 120012Z 36004KT 12/M15 A3028 RMK A01 T01201151  RH  014%=      5-min Rain = 0
KQU1 120013Z 01003KT 12/M15 A3028 RMK A01 T01201151  RH  014%=      5-min Rain = 0
KQU1 120014Z 00003KT 12/M15 A3028 RMK A01 T01201149  RH  014%=      5-min Rain = 0
KQU1 120015Z 00005KT 12/M15 A3028 RMK A01 T01191154  RH  013%=      5-min Rain = 0
KQU1 120016Z 36002KT 12/M15 A3028 RMK A01 T01191154  RH  013%=      5-min Rain = 0
KQU1 120017Z 36004KT 12/M15 A3028 RMK A01 T01181151  RH  014%=      5-min Rain = 0
KQU1 120018Z 36003KT 12/M15 A3028 RMK A01 T01181147  RH  014%=      5-min Rain = 0
KQU1 120019Z 00005KT 12/M15 A3028 RMK A01 T01171152  RH  014%=      5-min Rain = 0
KQU1 120020Z 00006KT 12/M16 A3028 RMK A01 T01171156  RH  013%=      5-min Rain = 0
KQU1 120021Z 00005KT 12/M15 A3028 RMK A01 T01171153  RH  014%=      5-min Rain = 0
KQU1 120022Z 00003KT 12/M15 A3028 RMK A01 T01161150  RH  014%=      5-min Rain = 0
KQU1 120023Z 36003KT 12/M15 A3028 RMK A01 T01161151  RH  014%=      5-min Rain = 0
KQU1 120024Z 01003KT 12/M15 A3028 RMK A01 T01151148  RH  014%=      5-min Rain = 0
KQU1 120025Z 01005KT 12/M15 A3028 RMK A01 T01151147  RH  014%=      5-min Rain = 0
KQU1 120026Z 01003KT 11/M15 A3028 RMK A01 T01141148  RH  014%=      5-min Rain = 0
KQU1 120027Z 01004KT 11/M15 A3028 RMK A01 T01141147  RH  015%=      5-min Rain = 0
KQU1 120028Z 01003KT 11/M15 A3028 RMK A01 T01131148  RH  015%=      5-min Rain = 0
KQU1 120029Z 01004KT 11/M15 A3028 RMK A01 T01131149  RH  015%=      5-min Rain = 0
KQU1 120030Z 02003KT 11/M15 A3029 RMK A01 T01121147  RH  015%=      5-min Rain = 0
KQU1 120031Z 02006G12KT 11/M15 A3029 RMK A01 T01121149  RH  015%=      5-min Rain = 0
KQU1 120032Z 02008KT 11/M15 A3029 RMK A01 T01111145  RH  015%=      5-min Rain = 0
KQU1 120033Z 02007KT 11/M14 A3029 RMK A01 T01121136  RH  016%=      5-min Rain = 0
KQU1 120034Z 01008KT 11/M13 A3029 RMK A01 T01121134  RH  016%=      5-min Rain = 0
KQU1 120035Z 02006KT 11/M13 A3029 RMK A01 T01121132  RH  017%=      5-min Rain = 0
KQU1 120036Z 02007KT 11/M13 A3029 RMK A01 T01121125  RH  018%=      5-min Rain = 0
KQU1 120037Z 02006KT 11/M12 A3029 RMK A01 T01121121  RH  018%=      5-min Rain = 0
KQU1 120038Z 02008KT 11/M12 A3029 RMK A01 T01121119  RH  019%=      5-min Rain = 0
KQU1 120039Z 02010KT 11/M12 A3029 RMK A01 T01111117  RH  019%=      5-min Rain = 0
KQU1 120040Z 02006KT 11/M11 A3029 RMK A01 T01111114  RH  019%=      5-min Rain = 0
KQU1 120041Z 02008KT 11/M11 A3029 RMK A01 T01111111  RH  020%=      5-min Rain = 0
KQU1 120042Z 02006KT 11/M11 A3029 RMK A01 T01111111  RH  020%=      5-min Rain = 0
KQU1 120043Z 02006KT 11/M10 A3029 RMK A01 T01111104  RH  021%=      5-min Rain = 0
KQU1 120044Z 02007KT 11/M10 A3029 RMK A01 T01101104  RH  021%=      5-min Rain = 0
KQU1 120045Z 02007KT 11/M10 A3029 RMK A01 T01101103  RH  021%=      5-min Rain = 0
KQU1 120046Z 02007KT 11/M10 A3029 RMK A01 T01101103  RH  021%=      5-min Rain = 0
KQU1 120047Z 02007KT 11/M10 A3029 RMK A01 T01091102  RH  022%=      5-min Rain = 0
KQU1 120048Z 02008KT 11/M10 A3029 RMK A01 T01091101  RH  022%=      5-min Rain = 0
KQU1 120049Z 02007KT 11/M10 A3029 RMK A01 T01091100  RH  022%=      5-min Rain = 0
KQU1 120050Z 02006KT 11/M10 A3029 RMK A01 T01081101  RH  022%=      5-min Rain = 0
KQU1 120051Z 03006KT 11/M10 A3029 RMK A01 T01081098  RH  023%=      5-min Rain = 0
KQU1 120052Z 02006KT 11/M10 A3029 RMK A01 T01081098  RH  023%=      5-min Rain = 0
KQU1 120053Z 03006KT 11/M10 A3029 RMK A01 T01071096  RH  023%=      5-min Rain = 0
KQU1 120054Z 02007KT 11/M10 A3029 RMK A01 T01071096  RH  023%=      5-min Rain = 0
KQU1 120055Z 02005KT 11/M10 A3029 RMK A01 T01061096  RH  023%=      5-min Rain = 0
KQU1 120056Z 02007KT 11/M10 A3029 RMK A01 T01061097  RH  023%=      5-min Rain = 0
KQU1 120057Z 03006KT 11/M10 A3029 RMK A01 T01061096  RH  023%=      5-min Rain = 0
KQU1 120058Z 02006KT 11/M10 A3029 RMK A01 T01051095  RH  024%=      5-min Rain = 0
KQU1 120059Z 02005KT 11/M09 A303 RMK A01 T01051093  RH  024%=      5-min Rain = 0
KQU1 120100Z 02005KT 10/M09 A303 RMK A01 T01041094  RH  024%=      5-min Rain = 0
KQU1 120101Z 01004KT 10/M10 A303 RMK A01 T01031095  RH  024%=      5-min Rain = 0
KQU1 120102Z 01003KT 10/M10 A303 RMK A01 T01031096  RH  024%=      5-min Rain = 0
KQU1 120103Z 00003KT 10/M10 A303 RMK A01 T01021097  RH  024%=      5-min Rain = 0
KQU1 120104Z 36003KT 10/M10 A303 RMK A01 T01011098  RH  024%=      5-min Rain = 0
KQU1 120105Z 36004KT 10/M10 A303 RMK A01 T01011099  RH  023%=      5-min Rain = 0
KQU1 120106Z 35004KT 10/M10 A303 RMK A01 T01001098  RH  024%=      5-min Rain = 0
KQU1 120107Z 35003KT 10/M10 A303 RMK A01 T00981101  RH  023%=      5-min Rain = 0
KQU1 120108Z 36004KT 10/M10 A303 RMK A01 T00971101  RH  024%=      5-min Rain = 0
KQU1 120109Z 35004KT 10/M10 A303 RMK A01 T00961100  RH  024%=      5-min Rain = 0
KQU1 120110Z 35004KT 10/M10 A303 RMK A01 T00961098  RH  024%=      5-min Rain = 0
KQU1 120111Z 35004KT 10/M10 A303 RMK A01 T00951099  RH  024%=      5-min Rain = 0
KQU1 120112Z 35003KT 09/M10 A303 RMK A01 T00941100  RH  024%=      5-min Rain = 0
KQU1 120113Z 35003KT 09/M10 A303 RMK A01 T00941100  RH  024%=      5-min Rain = 0
KQU1 120114Z 35004KT 09/M10 A303 RMK A01 T00931099  RH  025%=      5-min Rain = 0
KQU1 120115Z 36004KT 09/M10 A303 RMK A01 T00931100  RH  025%=      5-min Rain = 0
KQU1 120116Z 36004KT 09/M10 A303 RMK A01 T00931098  RH  025%=      5-min Rain = 0
KQU1 120117Z 35004KT 09/M10 A303 RMK A01 T00931097  RH  025%=      5-min Rain = 0
KQU1 120118Z 36004KT 09/M10 A303 RMK A01 T00931099  RH  025%=      5-min Rain = 0
KQU1 120119Z 35004KT 09/M09 A303 RMK A01 T00921094  RH  026%=      5-min Rain = 0
KQU1 120120Z 36004KT 09/M09 A303 RMK A01 T00921091  RH  026%=      5-min Rain = 0
KQU1 120121Z 35004KT 09/M09 A303 RMK A01 T00911093  RH  026%=      5-min Rain = 0
KQU1 120122Z 35003KT 09/M09 A303 RMK A01 T00911094  RH  026%=      5-min Rain = 0
KQU1 120123Z 35004KT 09/M10 A303 RMK A01 T00901096  RH  026%=      5-min Rain = 0
KQU1 120124Z 35004KT 09/M10 A303 RMK A01 T00901098  RH  025%=      5-min Rain = 0
KQU1 120125Z 35003KT 09/M10 A303 RMK A01 T00901099  RH  025%=      5-min Rain = 0
KQU1 120126Z 35003KT 09/M10 A303 RMK A01 T00901099  RH  025%=      5-min Rain = 0
KQU1 120127Z 36003KT 09/M10 A303 RMK A01 T00891098  RH  025%=      5-min Rain = 0
KQU1 120128Z 36003KT 09/M10 A303 RMK A01 T00891099  RH  025%=      5-min Rain = 0
KQU1 120129Z 36003KT 09/M10 A303 RMK A01 T00881100  RH  025%=      5-min Rain = 0
KQU1 120130Z 36002KT 09/M10 A303 RMK A01 T00881100  RH  025%=      5-min Rain = 0
KQU1 120131Z 36003KT 09/M10 A303 RMK A01 T00881102  RH  025%=      5-min Rain = 0
KQU1 120132Z 36003KT 09/M10 A303 RMK A01 T00881102  RH  025%=      5-min Rain = 0
KQU1 120133Z 35002KT 09/M10 A303 RMK A01 T00881101  RH  025%=      5-min Rain = 0
KQU1 120134Z 35003KT 09/M10 A3031 RMK A01 T00871099  RH  026%=      5-min Rain = 0
KQU1 120135Z 36003KT 09/M10 A3031 RMK A01 T00881098  RH  026%=      5-min Rain = 0
KQU1 120136Z 35003KT 09/M10 A3031 RMK A01 T00871099  RH  026%=      5-min Rain = 0
KQU1 120137Z 35004KT 09/M10 A3031 RMK A01 T00871101  RH  025%=      5-min Rain = 0
KQU1 120138Z 00003KT 09/M10 A3031 RMK A01 T00871103  RH  025%=      5-min Rain = 0
KQU1 120139Z 00003KT 09/M10 A3031 RMK A01 T00871101  RH  025%=      5-min Rain = 0
KQU1 120140Z 01003KT 09/M10 A3031 RMK A01 T00871099  RH  026%=      5-min Rain = 0
KQU1 120141Z 00003KT 09/M10 A3031 RMK A01 T00871097  RH  026%=      5-min Rain = 0
KQU1 120142Z 00003KT 09/M10 A3031 RMK A01 T00861099  RH  026%=      5-min Rain = 0
KQU1 120143Z 02004KT 09/M10 A3031 RMK A01 T00861101  RH  025%=      5-min Rain = 0
KQU1 120144Z 01003KT 09/M10 A3031 RMK A01 T00861103  RH  025%=      5-min Rain = 0
KQU1 120145Z 01003KT 09/M10 A3031 RMK A01 T00861103  RH  025%=      5-min Rain = 0
KQU1 120146Z 36004KT 09/M10 A3031 RMK A01 T00851103  RH  025%=      5-min Rain = 0
KQU1 120147Z 00004KT 09/M10 A3031 RMK A01 T00851103  RH  025%=      5-min Rain = 0
KQU1 120148Z 35004KT 09/M10 A3031 RMK A01 T00851102  RH  025%=      5-min Rain = 0
KQU1 120149Z 01003KT 09/M10 A3031 RMK A01 T00851102  RH  025%=      5-min Rain = 0
KQU1 120150Z 36004KT 08/M10 A3031 RMK A01 T00841099  RH  026%=      5-min Rain = 0
KQU1 120151Z 00003KT 08/M10 A3031 RMK A01 T00841098  RH  026%=      5-min Rain = 0
KQU1 120152Z 00003KT 08/M10 A3032 RMK A01 T00841098  RH  026%=      5-min Rain = 0
KQU1 120153Z 36003KT 08/M10 A3032 RMK A01 T00831098  RH  026%=      5-min Rain = 0
KQU1 120154Z 35004KT 08/M10 A3032 RMK A01 T00831100  RH  026%=      5-min Rain = 0
KQU1 120155Z 35003KT 08/M10 A3032 RMK A01 T00821104  RH  026%=      5-min Rain = 0
KQU1 120156Z 35004KT 08/M11 A3032 RMK A01 T00821106  RH  025%=      5-min Rain = 0
KQU1 120157Z 00003KT 08/M11 A3032 RMK A01 T00811108  RH  025%=      5-min Rain = 0
KQU1 120158Z 00003KT 08/M11 A3032 RMK A01 T00801109  RH  025%=      5-min Rain = 0
KQU1 120159Z 00003KT 08/M11 A3032 RMK A01 T00801109  RH  025%=      5-min Rain = 0
KQU1 120200Z 00003KT 08/M11 A3032 RMK A01 T00801107  RH  025%=      5-min Rain = 0
KQU1 120201Z 01003KT 08/M11 A3032 RMK A01 T00791106  RH  026%=      5-min Rain = 0
KQU1 120202Z 02003KT 08/M11 A3032 RMK A01 T00791105  RH  026%=      5-min Rain = 0
KQU1 120203Z 01002KT 08/M10 A3032 RMK A01 T00791103  RH  026%=      5-min Rain = 0
KQU1 120204Z 01002KT 08/M10 A3032 RMK A01 T00791103  RH  026%=      5-min Rain = 0
KQU1 120205Z 00002KT 08/M10 A3032 RMK A01 T00791104  RH  026%=      5-min Rain = 0
KQU1 120206Z 35002KT 08/M11 A3032 RMK A01 T00791105  RH  026%=      5-min Rain = 0
KQU1 120207Z 35002KT 08/M11 A3032 RMK A01 T00791106  RH  026%=      5-min Rain = 0
KQU1 120208Z 35003KT 08/M11 A3032 RMK A01 T00791108  RH  025%=      5-min Rain = 0
KQU1 120209Z 35003KT 08/M11 A3032 RMK A01 T00781110  RH  025%=      5-min Rain = 0
KQU1 120210Z 35003KT 08/M11 A3032 RMK A01 T00781110  RH  025%=      5-min Rain = 0
KQU1 120211Z 36003KT 08/M11 A3032 RMK A01 T00771110  RH  025%=      5-min Rain = 0
KQU1 120212Z 35002KT 08/M11 A3032 RMK A01 T00771110  RH  025%=      5-min Rain = 0
KQU1 120213Z 35003KT 08/M11 A3032 RMK A01 T00761109  RH  025%=      5-min Rain = 0
KQU1 120214Z 35003KT 08/M11 A3032 RMK A01 T00761109  RH  026%=      5-min Rain = 0
KQU1 120215Z 00003KT 08/M11 A3032 RMK A01 T00761108  RH  026%=      5-min Rain = 0
KQU1 120216Z 35002KT 08/M11 A3032 RMK A01 T00751108  RH  026%=      5-min Rain = 0
KQU1 120217Z 36003KT 08/M11 A3032 RMK A01 T00751107  RH  026%=      5-min Rain = 0
KQU1 120218Z 36003KT 08/M11 A3032 RMK A01 T00751105  RH  026%=      5-min Rain = 0
KQU1 120219Z 36003KT 08/M10 A3033 RMK A01 T00751104  RH  027%=      5-min Rain = 0
KQU1 120220Z 35004KT 08/M10 A3033 RMK A01 T00761100  RH  027%=      5-min Rain = 0
KQU1 120221Z 36004KT 08/M10 A3033 RMK A01 T00761100  RH  027%=      5-min Rain = 0
KQU1 120222Z 35003KT 08/M10 A3033 RMK A01 T00761100  RH  028%=      5-min Rain = 0
KQU1 120223Z 35004KT 08/M10 A3033 RMK A01 T00761098  RH  028%=      5-min Rain = 0
KQU1 120224Z 35004KT 08/M10 A3033 RMK A01 T00771099  RH  028%=      5-min Rain = 0
KQU1 120225Z 35005KT 08/M10 A3033 RMK A01 T00781099  RH  027%=      5-min Rain = 0
KQU1 120226Z 34005KT 08/M10 A3033 RMK A01 T00781099  RH  027%=      5-min Rain = 0
KQU1 120227Z 35004KT 08/M10 A3033 RMK A01 T00781099  RH  027%=      5-min Rain = 0
KQU1 120228Z 34004KT 08/M10 A3033 RMK A01 T00791098  RH  027%=      5-min Rain = 0
KQU1 120229Z 35004KT 08/M10 A3033 RMK A01 T00791097  RH  028%=      5-min Rain = 0
KQU1 120230Z 35004KT 08/M10 A3033 RMK A01 T00791095  RH  028%=      5-min Rain = 0
KQU1 120231Z 35004KT 08/M09 A3033 RMK A01 T00801093  RH  028%=      5-min Rain = 0
KQU1 120232Z 35004KT 08/M09 A3033 RMK A01 T00801092  RH  029%=      5-min Rain = 0
KQU1 120233Z 35005KT 08/M09 A3033 RMK A01 T00801090  RH  029%=      5-min Rain = 0
KQU1 120234Z 35004KT 08/M09 A3033 RMK A01 T00801091  RH  029%=      5-min Rain = 0
KQU1 120235Z 35004KT 08/M09 A3033 RMK A01 T00801089  RH  029%=      5-min Rain = 0
KQU1 120236Z 36004KT 08/M09 A3034 RMK A01 T00801088  RH  029%=      5-min Rain = 0
KQU1 120237Z 35003KT 08/M09 A3034 RMK A01 T00801087  RH  030%=      5-min Rain = 0
KQU1 120238Z 00004KT 08/M09 A3034 RMK A01 T00801086  RH  030%=      5-min Rain = 0
KQU1 120239Z 35004KT 08/M08 A3034 RMK A01 T00801083  RH  031%=      5-min Rain = 0
KQU1 120240Z 35004KT 08/M08 A3034 RMK A01 T00791083  RH  031%=      5-min Rain = 0
KQU1 120241Z 35005KT 08/M08 A3034 RMK A01 T00791083  RH  031%=      5-min Rain = 0
KQU1 120242Z 35004KT 08/M09 A3034 RMK A01 T00791086  RH  030%=      5-min Rain = 0
KQU1 120243Z 34004KT 08/M09 A3034 RMK A01 T00791086  RH  030%=      5-min Rain = 0
KQU1 120244Z 35005KT 08/M09 A3034 RMK A01 T00791087  RH  030%=      5-min Rain = 0
KQU1 120245Z 35005KT 08/M09 A3034 RMK A01 T00791085  RH  030%=      5-min Rain = 0
KQU1 120246Z 35004KT 08/M08 A3034 RMK A01 T00791083  RH  031%=      5-min Rain = 0
KQU1 120247Z 01004KT 08/M08 A3034 RMK A01 T00791082  RH  031%=      5-min Rain = 0
KQU1 120248Z 35004KT 08/M08 A3034 RMK A01 T00791081  RH  031%=      5-min Rain = 0
KQU1 120249Z 36004KT 08/M08 A3034 RMK A01 T00791081  RH  031%=      5-min Rain = 0
KQU1 120250Z 36005KT 08/M08 A3034 RMK A01 T00791081  RH  031%=      5-min Rain = 0
KQU1 120251Z 35004KT 08/M08 A3035 RMK A01 T00791078  RH  032%=      5-min Rain = 0
KQU1 120252Z 35005KT 08/M08 A3035 RMK A01 T00791079  RH  032%=      5-min Rain = 0
KQU1 120253Z 35003KT 08/M08 A3035 RMK A01 T00791080  RH  032%=      5-min Rain = 0
KQU1 120254Z 35004KT 08/M08 A3035 RMK A01 T00791081  RH  031%=      5-min Rain = 0
KQU1 120255Z 34005KT 08/M08 A3035 RMK A01 T00791082  RH  031%=      5-min Rain = 0
KQU1 120256Z 35005KT 08/M08 A3035 RMK A01 T00791082  RH  031%=      5-min Rain = 0
KQU1 120257Z 34005KT 08/M08 A3035 RMK A01 T00791082  RH  031%=      5-min Rain = 0
KQU1 120258Z 35005KT 08/M08 A3035 RMK A01 T00791083  RH  031%=      5-min Rain = 0
KQU1 120259Z 35004KT 08/M08 A3035 RMK A01 T00791082  RH  031%=      5-min Rain = 0
KQU1 120300Z 34004KT 08/M08 A3035 RMK A01 T00791082  RH  031%=      5-min Rain = 0
KQU1 120301Z 35004KT 08/M08 A3035 RMK A01 T00791082  RH  031%=      5-min Rain = 0
KQU1 120302Z 34004KT 08/M08 A3035 RMK A01 T00781083  RH  031%=      5-min Rain = 0
KQU1 120303Z 35004KT 08/M08 A3035 RMK A01 T00781083  RH  031%=      5-min Rain = 0
KQU1 120304Z 34005KT 08/M08 A3035 RMK A01 T00781084  RH  031%=      5-min Rain = 0
KQU1 120305Z 34004KT 08/M08 A3035 RMK A01 T00771084  RH  031%=      5-min Rain = 0
KQU1 120306Z 34004KT 08/M08 A3035 RMK A01 T00771084  RH  031%=      5-min Rain = 0
KQU1 120307Z 34005KT 08/M08 A3035 RMK A01 T00771083  RH  031%=      5-min Rain = 0
KQU1 120308Z 35005KT 08/M08 A3035 RMK A01 T00771083  RH  031%=      5-min Rain = 0
KQU1 120309Z 34004KT 08/M08 A3035 RMK A01 T00781082  RH  031%=      5-min Rain = 0
KQU1 120310Z 35003KT 08/M08 A3035 RMK A01 T00771082  RH  031%=      5-min Rain = 0
KQU1 120311Z 36003KT 08/M08 A3035 RMK A01 T00771082  RH  032%=      5-min Rain = 0
KQU1 120312Z 36004KT 08/M08 A3035 RMK A01 T00771079  RH  032%=      5-min Rain = 0
KQU1 120313Z 35003KT 08/M08 A3035 RMK A01 T00761078  RH  033%=      5-min Rain = 0
KQU1 120314Z 35004KT 08/M08 A3035 RMK A01 T00761077  RH  033%=      5-min Rain = 0
KQU1 120315Z 35004KT 08/M08 A3035 RMK A01 T00761077  RH  033%=      5-min Rain = 0
KQU1 120316Z 34003KT 08/M08 A3035 RMK A01 T00761076  RH  033%=      5-min Rain = 0
KQU1 120317Z 34005KT 08/M08 A3035 RMK A01 T00751076  RH  033%=      5-min Rain = 0
KQU1 120318Z 34005KT 08/M08 A3035 RMK A01 T00751079  RH  033%=      5-min Rain = 0
KQU1 120319Z 34005KT 08/M08 A3036 RMK A01 T00751079  RH  033%=      5-min Rain = 0
KQU1 120320Z 34004KT 08/M08 A3036 RMK A01 T00751079  RH  033%=      5-min Rain = 0
KQU1 120321Z 34004KT 08/M08 A3036 RMK A01 T00751078  RH  033%=      5-min Rain = 0
KQU1 120322Z 34004KT 08/M08 A3036 RMK A01 T00751078  RH  033%=      5-min Rain = 0
KQU1 120323Z 34004KT 08/M08 A3036 RMK A01 T00751079  RH  033%=      5-min Rain = 0
KQU1 120324Z 35004KT 08/M08 A3036 RMK A01 T00751078  RH  033%=      5-min Rain = 0
KQU1 120325Z 35004KT 08/M08 A3036 RMK A01 T00751078  RH  033%=      5-min Rain = 0
KQU1 120326Z 35002KT 07/M08 A3036 RMK A01 T00741076  RH  034%=      5-min Rain = 0
KQU1 120327Z 35003KT 07/M07 A3036 RMK A01 T00741074  RH  034%=      5-min Rain = 0
KQU1 120328Z 34003KT 07/M07 A3036 RMK A01 T00741074  RH  034%=      5-min Rain = 0
KQU1 120329Z 35004KT 07/M07 A3036 RMK A01 T00731072  RH  035%=      5-min Rain = 0
KQU1 120330Z 35003KT 07/M07 A3036 RMK A01 T00731071  RH  035%=      5-min Rain = 0
KQU1 120331Z 35003KT 07/M07 A3036 RMK A01 T00721070  RH  036%=      5-min Rain = 0
KQU1 120332Z 00003KT 07/M07 A3036 RMK A01 T00721068  RH  036%=      5-min Rain = 0
KQU1 120333Z 35003KT 07/M07 A3036 RMK A01 T00711069  RH  036%=      5-min Rain = 0
KQU1 120334Z 35003KT 07/M07 A3036 RMK A01 T00711068  RH  037%=      5-min Rain = 0
KQU1 120335Z 35004KT 07/M07 A3036 RMK A01 T00701070  RH  036%=      5-min Rain = 0
KQU1 120336Z 34004KT 07/M07 A3036 RMK A01 T00701071  RH  036%=      5-min Rain = 0
KQU1 120337Z 34004KT 07/M07 A3036 RMK A01 T00701072  RH  036%=      5-min Rain = 0
KQU1 120338Z 35004KT 07/M07 A3036 RMK A01 T00701071  RH  036%=      5-min Rain = 0
KQU1 120339Z 35003KT 07/M07 A3036 RMK A01 T00701071  RH  036%=      5-min Rain = 0
KQU1 120340Z 35003KT 07/M07 A3036 RMK A01 T00701071  RH  036%=      5-min Rain = 0
KQU1 120341Z 35002KT 07/M07 A3036 RMK A01 T00691071  RH  036%=      5-min Rain = 0
KQU1 120342Z 35002KT 07/M07 A3036 RMK A01 T00691069  RH  037%=      5-min Rain = 0
KQU1 120343Z 35003KT 07/M07 A3036 RMK A01 T00691069  RH  037%=      5-min Rain = 0
KQU1 120344Z 35003KT 07/M07 A3036 RMK A01 T00691070  RH  036%=      5-min Rain = 0
KQU1 120345Z 35004KT 07/M07 A3036 RMK A01 T00691071  RH  036%=      5-min Rain = 0
KQU1 120346Z 35004KT 07/M07 A3036 RMK A01 T00691070  RH  036%=      5-min Rain = 0
KQU1 120347Z 35003KT 07/M07 A3036 RMK A01 T00691069  RH  037%=      5-min Rain = 0
KQU1 120348Z 34004KT 07/M07 A3036 RMK A01 T00691069  RH  037%=      5-min Rain = 0
KQU1 120349Z 35004KT 07/M06 A3036 RMK A01 T00691064  RH  038%=      5-min Rain = 0
KQU1 120350Z 36004KT 07/M06 A3036 RMK A01 T00691063  RH  038%=      5-min Rain = 0
KQU1 120351Z 34003KT 07/M06 A3036 RMK A01 T00691063  RH  038%=      5-min Rain = 0
KQU1 120352Z 35004KT 07/M06 A3036 RMK A01 T00691063  RH  038%=      5-min Rain = 0
KQU1 120353Z 35004KT 07/M06 A3036 RMK A01 T00691064  RH  038%=      5-min Rain = 0
KQU1 120354Z 34004KT 07/M06 A3036 RMK A01 T00691063  RH  038%=      5-min Rain = 0
KQU1 120355Z 34004KT 07/M06 A3036 RMK A01 T00701064  RH  038%=      5-min Rain = 0
KQU1 120356Z 34004KT 07/M06 A3036 RMK A01 T00701064  RH  038%=      5-min Rain = 0
KQU1 120357Z 34003KT 07/M07 A3036 RMK A01 T00711066  RH  037%=      5-min Rain = 0
KQU1 120358Z 35004KT 07/M07 A3036 RMK A01 T00711065  RH  037%=      5-min Rain = 0
KQU1 120359Z 35004KT 07/M06 A3036 RMK A01 T00711064  RH  038%=      5-min Rain = 0
KQU1 120400Z 35004KT 07/M06 A3036 RMK A01 T00711064  RH  037%=      5-min Rain = 0
KQU1 120401Z 33004KT 07/M06 A3036 RMK A01 T00711064  RH  038%=      5-min Rain = 0
KQU1 120402Z 36005KT 07/M07 A3036 RMK A01 T00711066  RH  037%=      5-min Rain = 0
KQU1 120403Z 34005KT 07/M07 A3036 RMK A01 T00711065  RH  037%=      5-min Rain = 0
KQU1 120404Z 00003KT 07/M06 A3036 RMK A01 T00711064  RH  038%=      5-min Rain = 0
KQU1 120405Z 35002KT 07/M06 A3036 RMK A01 T00711062  RH  038%=      5-min Rain = 0
KQU1 120406Z 01003KT 07/M06 A3036 RMK A01 T00701059  RH  039%=      5-min Rain = 0
KQU1 120407Z 02005KT 07/M06 A3036 RMK A01 T00701060  RH  039%=      5-min Rain = 0
KQU1 120408Z 35004KT 07/M06 A3036 RMK A01 T00701059  RH  039%=      5-min Rain = 0
KQU1 120409Z 00004KT 07/M06 A3036 RMK A01 T00701059  RH  039%=      5-min Rain = 0
KQU1 120410Z 35004KT 07/M06 A3036 RMK A01 T00701060  RH  039%=      5-min Rain = 0
KQU1 120411Z 36004KT 07/M06 A3036 RMK A01 T00701060  RH  039%=      5-min Rain = 0
KQU1 120412Z 35004KT 07/M06 A3036 RMK A01 T00701059  RH  039%=      5-min Rain = 0
KQU1 120413Z 36004KT 07/M06 A3036 RMK A01 T00701059  RH  039%=      5-min Rain = 0
KQU1 120414Z 36005KT 07/M06 A3036 RMK A01 T00701060  RH  039%=      5-min Rain = 0
KQU1 120415Z 35004KT 07/M06 A3036 RMK A01 T00701060  RH  039%=      5-min Rain = 0
KQU1 120416Z 00005KT 07/M06 A3036 RMK A01 T00701058  RH  039%=      5-min Rain = 0
KQU1 120417Z 00005KT 07/M06 A3036 RMK A01 T00701060  RH  039%=      5-min Rain = 0
KQU1 120418Z 00004KT 07/M06 A3036 RMK A01 T00691061  RH  039%=      5-min Rain = 0
KQU1 120419Z 36005KT 07/M06 A3036 RMK A01 T00691061  RH  039%=      5-min Rain = 0
KQU1 120420Z 35004KT 07/M06 A3036 RMK A01 T00691059  RH  040%=      5-min Rain = 0
KQU1 120421Z 35005KT 07/M06 A3036 RMK A01 T00681058  RH  040%=      5-min Rain = 0
KQU1 120422Z 35004KT 07/M06 A3036 RMK A01 T00681056  RH  041%=      5-min Rain = 0
KQU1 120423Z 00004KT 07/M05 A3036 RMK A01 T00681053  RH  042%=      5-min Rain = 0
KQU1 120424Z 00005KT 07/M06 A3036 RMK A01 T00681057  RH  040%=      5-min Rain = 0
KQU1 120425Z 36004KT 07/M06 A3036 RMK A01 T00681057  RH  040%=      5-min Rain = 0
KQU1 120426Z 00004KT 07/M06 A3036 RMK A01 T00681057  RH  041%=      5-min Rain = 0
KQU1 120427Z 35005KT 07/M06 A3036 RMK A01 T00671059  RH  040%=      5-min Rain = 0
KQU1 120428Z 35004KT 07/M06 A3036 RMK A01 T00671060  RH  040%=      5-min Rain = 0
KQU1 120429Z 35005KT 07/M06 A3036 RMK A01 T00671059  RH  040%=      5-min Rain = 0
KQU1 120430Z 35003KT 07/M06 A3036 RMK A01 T00671058  RH  040%=      5-min Rain = 0
KQU1 120431Z 00004KT 07/M06 A3036 RMK A01 T00671059  RH  040%=      5-min Rain = 0
KQU1 120432Z 35004KT 07/M06 A3036 RMK A01 T00671057  RH  041%=      5-min Rain = 0
KQU1 120433Z 35005KT 07/M06 A3036 RMK A01 T00671058  RH  041%=      5-min Rain = 0
KQU1 120434Z 34005KT 07/M06 A3036 RMK A01 T00671058  RH  041%=      5-min Rain = 0
KQU1 120435Z 36003KT 07/M06 A3036 RMK A01 T00671058  RH  040%=      5-min Rain = 0
KQU1 120436Z 35002KT 07/M06 A3036 RMK A01 T00671055  RH  041%=      5-min Rain = 0
KQU1 120437Z 00004KT 07/M06 A3036 RMK A01 T00661056  RH  041%=      5-min Rain = 0
KQU1 120438Z 36003KT 07/M06 A3036 RMK A01 T00661057  RH  041%=      5-min Rain = 0
KQU1 120439Z 35004KT 07/M06 A3036 RMK A01 T00651057  RH  041%=      5-min Rain = 0
KQU1 120440Z 35003KT 07/M06 A3037 RMK A01 T00651058  RH  041%=      5-min Rain = 0
KQU1 120441Z 00005KT 07/M06 A3037 RMK A01 T00651057  RH  041%=      5-min Rain = 0
KQU1 120442Z 35005KT 07/M06 A3037 RMK A01 T00651057  RH  041%=      5-min Rain = 0
KQU1 120443Z 36005KT 07/M06 A3037 RMK A01 T00651058  RH  041%=      5-min Rain = 0
KQU1 120444Z 34005KT 07/M06 A3037 RMK A01 T00651058  RH  041%=      5-min Rain = 0
KQU1 120445Z 36005KT 07/M06 A3037 RMK A01 T00651056  RH  042%=      5-min Rain = 0
KQU1 120446Z 35005KT 07/M06 A3037 RMK A01 T00651056  RH  042%=      5-min Rain = 0
KQU1 120447Z 35005KT 07/M06 A3037 RMK A01 T00661057  RH  041%=      5-min Rain = 0
KQU1 120448Z 35004KT 07/M06 A3037 RMK A01 T00661057  RH  041%=      5-min Rain = 0
KQU1 120449Z 35005KT 07/M06 A3037 RMK A01 T00651057  RH  041%=      5-min Rain = 0
KQU1 120450Z 36005KT 07/M06 A3037 RMK A01 T00651058  RH  041%=      5-min Rain = 0
KQU1 120451Z 36004KT 07/M06 A3037 RMK A01 T00651057  RH  041%=      5-min Rain = 0
KQU1 120452Z 36004KT 06/M06 A3037 RMK A01 T00641058  RH  041%=      5-min Rain = 0
KQU1 120453Z 36005KT 06/M06 A3037 RMK A01 T00641058  RH  041%=      5-min Rain = 0
KQU1 120454Z 00004KT 06/M06 A3037 RMK A01 T00641058  RH  041%=      5-min Rain = 0
KQU1 120455Z 35003KT 06/M06 A3037 RMK A01 T00641057  RH  042%=      5-min Rain = 0
KQU1 120456Z 35004KT 06/M06 A3037 RMK A01 T00631057  RH  042%=      5-min Rain = 0
KQU1 120457Z 35003KT 06/M06 A3037 RMK A01 T00631059  RH  041%=      5-min Rain = 0
KQU1 120458Z 34004KT 06/M06 A3037 RMK A01 T00631060  RH  041%=      5-min Rain = 0
KQU1 120459Z 00004KT 06/M06 A3037 RMK A01 T00621059  RH  041%=      5-min Rain = 0

Page generated in 0.0318 seconds.